<?xml version="1.0" encoding="utf-8"?>
<gpx xmlns:xsi="http://www.w3.org/2001/XMLSchema-instance" xmlns:xsd="http://www.w3.org/2001/XMLSchema" version="1.1" creator="Shapelink.com" xmlns="http://www.topografix.com/GPX/1/1" xmlns:gpxtpx="http://www.garmin.com/xmlschemas/TrackPointExtension/v1">
  <metadata>
    <name>Data från pulsklockan 0.00 km, 2011-01-30</name>
    <desc></desc>
    <author><name>Stefan Östlund</name></author> 
    <time>2011-01-30T10:21:31Z</time>
  </metadata>
  <trk>
    <name>Data från pulsklockan 0.00 km, 2011-01-30</name>
    <trkseg>
      <trkpt lat="44.9560006" lon="6.8887556">
        <ele>2099.66</ele>
        <time>2011-01-30T10:21:31Z</time>
      </trkpt>
      <trkpt lat="44.9559996" lon="6.8887566">
        <ele>2099.66</ele>
        <time>2011-01-30T10:21:32Z</time>
      </trkpt>
      <trkpt lat="44.9584611" lon="6.9137726">
        <ele>2549.55</ele>
        <time>2011-01-30T11:13:20Z</time>
      </trkpt>
      <trkpt lat="44.9586645" lon="6.9136799">
        <ele>2543.31</ele>
        <time>2011-01-30T11:13:24Z</time>
      </trkpt>
      <trkpt lat="44.9587747" lon="6.913615">
        <ele>2538.98</ele>
        <time>2011-01-30T11:13:26Z</time>
      </trkpt>
      <trkpt lat="44.9589656" lon="6.9134273">
        <ele>2528.89</ele>
        <time>2011-01-30T11:13:30Z</time>
      </trkpt>
      <trkpt lat="44.959034" lon="6.9133039">
        <ele>2522.64</ele>
        <time>2011-01-30T11:13:32Z</time>
      </trkpt>
      <trkpt lat="44.9590584" lon="6.9133181">
        <ele>2512.54</ele>
        <time>2011-01-30T11:13:38Z</time>
      </trkpt>
      <trkpt lat="44.9590705" lon="6.9130736">
        <ele>2513.5</ele>
        <time>2011-01-30T11:14:35Z</time>
      </trkpt>
      <trkpt lat="44.9590852" lon="6.9130068">
        <ele>2512.06</ele>
        <time>2011-01-30T11:14:36Z</time>
      </trkpt>
      <trkpt lat="44.9591537" lon="6.9126514">
        <ele>2504.85</ele>
        <time>2011-01-30T11:14:40Z</time>
      </trkpt>
      <trkpt lat="44.9592877" lon="6.9125305">
        <ele>2500.05</ele>
        <time>2011-01-30T11:14:42Z</time>
      </trkpt>
      <trkpt lat="44.9594183" lon="6.912311">
        <ele>2492.36</ele>
        <time>2011-01-30T11:14:45Z</time>
      </trkpt>
      <trkpt lat="44.9594328" lon="6.9122326">
        <ele>2489.95</ele>
        <time>2011-01-30T11:14:46Z</time>
      </trkpt>
      <trkpt lat="44.9594929" lon="6.9119102">
        <ele>2477.94</ele>
        <time>2011-01-30T11:14:50Z</time>
      </trkpt>
      <trkpt lat="44.9594176" lon="6.9117206">
        <ele>2471.69</ele>
        <time>2011-01-30T11:14:53Z</time>
      </trkpt>
      <trkpt lat="44.9594566" lon="6.9116008">
        <ele>2467.36</ele>
        <time>2011-01-30T11:14:55Z</time>
      </trkpt>
      <trkpt lat="44.9594524" lon="6.9115387">
        <ele>2465.44</ele>
        <time>2011-01-30T11:14:56Z</time>
      </trkpt>
      <trkpt lat="44.9595003" lon="6.9113615">
        <ele>2457.75</ele>
        <time>2011-01-30T11:15:00Z</time>
      </trkpt>
      <trkpt lat="44.9595902" lon="6.9113242">
        <ele>2454.86</ele>
        <time>2011-01-30T11:15:02Z</time>
      </trkpt>
      <trkpt lat="44.9597322" lon="6.9112157">
        <ele>2449.1</ele>
        <time>2011-01-30T11:15:07Z</time>
      </trkpt>
      <trkpt lat="44.9596597" lon="6.9110003">
        <ele>2443.81</ele>
        <time>2011-01-30T11:15:10Z</time>
      </trkpt>
      <trkpt lat="44.9595985" lon="6.9108264">
        <ele>2441.41</ele>
        <time>2011-01-30T11:15:12Z</time>
      </trkpt>
      <trkpt lat="44.9595758" lon="6.9104524">
        <ele>2433.71</ele>
        <time>2011-01-30T11:15:17Z</time>
      </trkpt>
      <trkpt lat="44.959567" lon="6.9103118">
        <ele>2429.87</ele>
        <time>2011-01-30T11:15:19Z</time>
      </trkpt>
      <trkpt lat="44.9596514" lon="6.9099818">
        <ele>2421.22</ele>
        <time>2011-01-30T11:15:24Z</time>
      </trkpt>
      <trkpt lat="44.9597571" lon="6.909732">
        <ele>2415.45</ele>
        <time>2011-01-30T11:15:27Z</time>
      </trkpt>
      <trkpt lat="44.959803" lon="6.9096829">
        <ele>2412.09</ele>
        <time>2011-01-30T11:15:29Z</time>
      </trkpt>
      <trkpt lat="44.9598033" lon="6.9096692">
        <ele>2411.12</ele>
        <time>2011-01-30T11:15:30Z</time>
      </trkpt>
      <trkpt lat="44.9598721" lon="6.9095993">
        <ele>2407.28</ele>
        <time>2011-01-30T11:15:36Z</time>
      </trkpt>
      <trkpt lat="44.9599201" lon="6.9095981">
        <ele>2406.32</ele>
        <time>2011-01-30T11:15:40Z</time>
      </trkpt>
      <trkpt lat="44.9599172" lon="6.909597">
        <ele>2405.84</ele>
        <time>2011-01-30T11:15:41Z</time>
      </trkpt>
      <trkpt lat="44.959959" lon="6.9094263">
        <ele>2403.43</ele>
        <time>2011-01-30T11:15:48Z</time>
      </trkpt>
      <trkpt lat="44.9600508" lon="6.9090565">
        <ele>2395.26</ele>
        <time>2011-01-30T11:15:52Z</time>
      </trkpt>
      <trkpt lat="44.9602084" lon="6.908727">
        <ele>2384.21</ele>
        <time>2011-01-30T11:15:56Z</time>
      </trkpt>
      <trkpt lat="44.9602868" lon="6.9085395">
        <ele>2376.04</ele>
        <time>2011-01-30T11:15:59Z</time>
      </trkpt>
      <trkpt lat="44.9602863" lon="6.9085067">
        <ele>2370.75</ele>
        <time>2011-01-30T11:16:02Z</time>
      </trkpt>
      <trkpt lat="44.9602871" lon="6.9085073">
        <ele>2369.79</ele>
        <time>2011-01-30T11:16:03Z</time>
      </trkpt>
      <trkpt lat="44.9603871" lon="6.9083887">
        <ele>2366.42</ele>
        <time>2011-01-30T11:16:44Z</time>
      </trkpt>
      <trkpt lat="44.9604476" lon="6.9083463">
        <ele>2362.58</ele>
        <time>2011-01-30T11:16:47Z</time>
      </trkpt>
      <trkpt lat="44.9604776" lon="6.9083336">
        <ele>2360.17</ele>
        <time>2011-01-30T11:16:50Z</time>
      </trkpt>
      <trkpt lat="44.960476" lon="6.9083316">
        <ele>2359.69</ele>
        <time>2011-01-30T11:16:51Z</time>
      </trkpt>
      <trkpt lat="44.9605508" lon="6.9083679">
        <ele>2356.81</ele>
        <time>2011-01-30T11:17:07Z</time>
      </trkpt>
      <trkpt lat="44.9607082" lon="6.9083835">
        <ele>2353.93</ele>
        <time>2011-01-30T11:17:10Z</time>
      </trkpt>
      <trkpt lat="44.9608285" lon="6.9083431">
        <ele>2351.04</ele>
        <time>2011-01-30T11:17:12Z</time>
      </trkpt>
      <trkpt lat="44.9610643" lon="6.9082305">
        <ele>2339.99</ele>
        <time>2011-01-30T11:17:16Z</time>
      </trkpt>
      <trkpt lat="44.9610971" lon="6.908114">
        <ele>2334.7</ele>
        <time>2011-01-30T11:17:18Z</time>
      </trkpt>
      <trkpt lat="44.9610888" lon="6.9080217">
        <ele>2332.78</ele>
        <time>2011-01-30T11:17:20Z</time>
      </trkpt>
      <trkpt lat="44.9610906" lon="6.9079612">
        <ele>2330.37</ele>
        <time>2011-01-30T11:17:25Z</time>
      </trkpt>
      <trkpt lat="44.961094" lon="6.9079208">
        <ele>2328.45</ele>
        <time>2011-01-30T11:17:30Z</time>
      </trkpt>
      <trkpt lat="44.9611257" lon="6.9079153">
        <ele>2325.57</ele>
        <time>2011-01-30T11:17:39Z</time>
      </trkpt>
      <trkpt lat="44.9612224" lon="6.907642">
        <ele>2318.84</ele>
        <time>2011-01-30T11:17:51Z</time>
      </trkpt>
      <trkpt lat="44.9613088" lon="6.9071782">
        <ele>2314.51</ele>
        <time>2011-01-30T11:17:57Z</time>
      </trkpt>
      <trkpt lat="44.9613798" lon="6.9068403">
        <ele>2310.19</ele>
        <time>2011-01-30T11:18:02Z</time>
      </trkpt>
      <trkpt lat="44.9613748" lon="6.9067037">
        <ele>2308.26</ele>
        <time>2011-01-30T11:18:07Z</time>
      </trkpt>
      <trkpt lat="44.9613738" lon="6.9066984">
        <ele>2307.78</ele>
        <time>2011-01-30T11:18:09Z</time>
      </trkpt>
      <trkpt lat="44.9615862" lon="6.9066189">
        <ele>2299.61</ele>
        <time>2011-01-30T11:18:45Z</time>
      </trkpt>
      <trkpt lat="44.9617885" lon="6.9063549">
        <ele>2292.4</ele>
        <time>2011-01-30T11:18:49Z</time>
      </trkpt>
      <trkpt lat="44.9618417" lon="6.9062884">
        <ele>2290.48</ele>
        <time>2011-01-30T11:18:50Z</time>
      </trkpt>
      <trkpt lat="44.9620414" lon="6.9060628">
        <ele>2282.79</ele>
        <time>2011-01-30T11:18:54Z</time>
      </trkpt>
      <trkpt lat="44.9620887" lon="6.9060202">
        <ele>2280.87</ele>
        <time>2011-01-30T11:18:55Z</time>
      </trkpt>
      <trkpt lat="44.9623466" lon="6.9057674">
        <ele>2268.37</ele>
        <time>2011-01-30T11:19:00Z</time>
      </trkpt>
      <trkpt lat="44.9624461" lon="6.905706">
        <ele>2263.56</ele>
        <time>2011-01-30T11:19:02Z</time>
      </trkpt>
      <trkpt lat="44.9625821" lon="6.9055577">
        <ele>2255.39</ele>
        <time>2011-01-30T11:19:06Z</time>
      </trkpt>
      <trkpt lat="44.9626119" lon="6.9055275">
        <ele>2252.99</ele>
        <time>2011-01-30T11:19:07Z</time>
      </trkpt>
      <trkpt lat="44.9626952" lon="6.905479">
        <ele>2249.14</ele>
        <time>2011-01-30T11:19:09Z</time>
      </trkpt>
      <trkpt lat="44.9628367" lon="6.9053411">
        <ele>2241.45</ele>
        <time>2011-01-30T11:19:13Z</time>
      </trkpt>
      <trkpt lat="44.9628941" lon="6.9053023">
        <ele>2234.72</ele>
        <time>2011-01-30T11:19:18Z</time>
      </trkpt>
      <trkpt lat="44.9630512" lon="6.9051348">
        <ele>2231.36</ele>
        <time>2011-01-30T11:19:34Z</time>
      </trkpt>
      <trkpt lat="44.9630525" lon="6.9050637">
        <ele>2229.92</ele>
        <time>2011-01-30T11:19:35Z</time>
      </trkpt>
      <trkpt lat="44.9630098" lon="6.904731">
        <ele>2222.71</ele>
        <time>2011-01-30T11:19:41Z</time>
      </trkpt>
      <trkpt lat="44.9630084" lon="6.9046738">
        <ele>2221.26</ele>
        <time>2011-01-30T11:19:42Z</time>
      </trkpt>
      <trkpt lat="44.9630766" lon="6.9044073">
        <ele>2212.61</ele>
        <time>2011-01-30T11:19:47Z</time>
      </trkpt>
      <trkpt lat="44.9631167" lon="6.9042729">
        <ele>2206.36</ele>
        <time>2011-01-30T11:19:50Z</time>
      </trkpt>
      <trkpt lat="44.9631644" lon="6.9040818">
        <ele>2199.15</ele>
        <time>2011-01-30T11:19:53Z</time>
      </trkpt>
      <trkpt lat="44.9631754" lon="6.9037315">
        <ele>2190.5</ele>
        <time>2011-01-30T11:19:57Z</time>
      </trkpt>
      <trkpt lat="44.9632112" lon="6.9034966">
        <ele>2185.21</ele>
        <time>2011-01-30T11:20:00Z</time>
      </trkpt>
      <trkpt lat="44.9631971" lon="6.9034319">
        <ele>2183.77</ele>
        <time>2011-01-30T11:20:01Z</time>
      </trkpt>
      <trkpt lat="44.9632022" lon="6.9033184">
        <ele>2180.89</ele>
        <time>2011-01-30T11:20:06Z</time>
      </trkpt>
      <trkpt lat="44.9632019" lon="6.9033199">
        <ele>2180.89</ele>
        <time>2011-01-30T11:20:07Z</time>
      </trkpt>
      <trkpt lat="44.9634629" lon="6.9032742">
        <ele>2174.16</ele>
        <time>2011-01-30T11:21:05Z</time>
      </trkpt>
      <trkpt lat="44.9635408" lon="6.903237">
        <ele>2172.24</ele>
        <time>2011-01-30T11:21:06Z</time>
      </trkpt>
      <trkpt lat="44.9639535" lon="6.9031324">
        <ele>2163.1</ele>
        <time>2011-01-30T11:21:11Z</time>
      </trkpt>
      <trkpt lat="44.9641519" lon="6.9030877">
        <ele>2159.26</ele>
        <time>2011-01-30T11:21:14Z</time>
      </trkpt>
      <trkpt lat="44.9643046" lon="6.9030628">
        <ele>2156.86</ele>
        <time>2011-01-30T11:21:18Z</time>
      </trkpt>
      <trkpt lat="44.9643658" lon="6.9030604">
        <ele>2155.41</ele>
        <time>2011-01-30T11:21:20Z</time>
      </trkpt>
      <trkpt lat="44.9645275" lon="6.902963">
        <ele>2149.65</ele>
        <time>2011-01-30T11:21:26Z</time>
      </trkpt>
      <trkpt lat="44.964549" lon="6.9029293">
        <ele>2148.2</ele>
        <time>2011-01-30T11:21:27Z</time>
      </trkpt>
      <trkpt lat="44.9646393" lon="6.9027934">
        <ele>2143.4</ele>
        <time>2011-01-30T11:21:30Z</time>
      </trkpt>
      <trkpt lat="44.9648325" lon="6.9025984">
        <ele>2135.71</ele>
        <time>2011-01-30T11:21:34Z</time>
      </trkpt>
      <trkpt lat="44.9650175" lon="6.9024472">
        <ele>2128.98</ele>
        <time>2011-01-30T11:21:37Z</time>
      </trkpt>
      <trkpt lat="44.9650951" lon="6.9024187">
        <ele>2127.05</ele>
        <time>2011-01-30T11:21:38Z</time>
      </trkpt>
      <trkpt lat="44.9652433" lon="6.9023807">
        <ele>2124.17</ele>
        <time>2011-01-30T11:21:40Z</time>
      </trkpt>
      <trkpt lat="44.9655286" lon="6.9023427">
        <ele>2119.84</ele>
        <time>2011-01-30T11:21:45Z</time>
      </trkpt>
      <trkpt lat="44.9657359" lon="6.9023662">
        <ele>2116.96</ele>
        <time>2011-01-30T11:21:49Z</time>
      </trkpt>
      <trkpt lat="44.9659336" lon="6.9024277">
        <ele>2114.08</ele>
        <time>2011-01-30T11:21:53Z</time>
      </trkpt>
      <trkpt lat="44.9660141" lon="6.9024619">
        <ele>2113.12</ele>
        <time>2011-01-30T11:21:55Z</time>
      </trkpt>
      <trkpt lat="44.9660355" lon="6.9025035">
        <ele>2112.63</ele>
        <time>2011-01-30T11:21:59Z</time>
      </trkpt>
      <trkpt lat="44.9659702" lon="6.9027359">
        <ele>2114.56</ele>
        <time>2011-01-30T11:22:31Z</time>
      </trkpt>
      <trkpt lat="44.9659327" lon="6.9028159">
        <ele>2115.04</ele>
        <time>2011-01-30T11:22:36Z</time>
      </trkpt>
      <trkpt lat="44.965923" lon="6.9028304">
        <ele>2115.04</ele>
        <time>2011-01-30T11:22:37Z</time>
      </trkpt>
      <trkpt lat="44.965838" lon="6.9029582">
        <ele>2118.88</ele>
        <time>2011-01-30T11:22:43Z</time>
      </trkpt>
      <trkpt lat="44.965762" lon="6.9030786">
        <ele>2120.81</ele>
        <time>2011-01-30T11:22:49Z</time>
      </trkpt>
      <trkpt lat="44.9657143" lon="6.903163">
        <ele>2123.21</ele>
        <time>2011-01-30T11:22:53Z</time>
      </trkpt>
      <trkpt lat="44.9656246" lon="6.9033048">
        <ele>2128.5</ele>
        <time>2011-01-30T11:23:00Z</time>
      </trkpt>
      <trkpt lat="44.9655156" lon="6.9034886">
        <ele>2135.71</ele>
        <time>2011-01-30T11:23:09Z</time>
      </trkpt>
      <trkpt lat="44.9654028" lon="6.9036771">
        <ele>2140.99</ele>
        <time>2011-01-30T11:23:18Z</time>
      </trkpt>
      <trkpt lat="44.9653071" lon="6.9038374">
        <ele>2146.76</ele>
        <time>2011-01-30T11:23:26Z</time>
      </trkpt>
      <trkpt lat="44.9652027" lon="6.9040214">
        <ele>2153.97</ele>
        <time>2011-01-30T11:23:35Z</time>
      </trkpt>
      <trkpt lat="44.9651091" lon="6.9041824">
        <ele>2161.18</ele>
        <time>2011-01-30T11:23:43Z</time>
      </trkpt>
      <trkpt lat="44.9650206" lon="6.9043341">
        <ele>2169.35</ele>
        <time>2011-01-30T11:23:51Z</time>
      </trkpt>
      <trkpt lat="44.9649155" lon="6.9045211">
        <ele>2179.45</ele>
        <time>2011-01-30T11:24:01Z</time>
      </trkpt>
      <trkpt lat="44.9648292" lon="6.9046655">
        <ele>2183.29</ele>
        <time>2011-01-30T11:24:08Z</time>
      </trkpt>
      <trkpt lat="44.9646757" lon="6.9049221">
        <ele>2192.42</ele>
        <time>2011-01-30T11:24:21Z</time>
      </trkpt>
      <trkpt lat="44.9645726" lon="6.9050988">
        <ele>2199.63</ele>
        <time>2011-01-30T11:24:30Z</time>
      </trkpt>
      <trkpt lat="44.9644775" lon="6.905254">
        <ele>2205.4</ele>
        <time>2011-01-30T11:24:38Z</time>
      </trkpt>
      <trkpt lat="44.9643452" lon="6.9054697">
        <ele>2214.05</ele>
        <time>2011-01-30T11:24:49Z</time>
      </trkpt>
      <trkpt lat="44.9642444" lon="6.9056364">
        <ele>2218.38</ele>
        <time>2011-01-30T11:24:57Z</time>
      </trkpt>
      <trkpt lat="44.9640398" lon="6.9059809">
        <ele>2229.43</ele>
        <time>2011-01-30T11:25:14Z</time>
      </trkpt>
      <trkpt lat="44.9638919" lon="6.9062312">
        <ele>2235.2</ele>
        <time>2011-01-30T11:25:26Z</time>
      </trkpt>
      <trkpt lat="44.9637362" lon="6.906497">
        <ele>2241.45</ele>
        <time>2011-01-30T11:25:39Z</time>
      </trkpt>
      <trkpt lat="44.9636166" lon="6.9066994">
        <ele>2249.14</ele>
        <time>2011-01-30T11:25:49Z</time>
      </trkpt>
      <trkpt lat="44.9635003" lon="6.9068946">
        <ele>2256.83</ele>
        <time>2011-01-30T11:25:59Z</time>
      </trkpt>
      <trkpt lat="44.9633702" lon="6.9071113">
        <ele>2262.6</ele>
        <time>2011-01-30T11:26:10Z</time>
      </trkpt>
      <trkpt lat="44.9631278" lon="6.907525">
        <ele>2275.1</ele>
        <time>2011-01-30T11:26:30Z</time>
      </trkpt>
      <trkpt lat="44.9629509" lon="6.9078245">
        <ele>2286.15</ele>
        <time>2011-01-30T11:26:45Z</time>
      </trkpt>
      <trkpt lat="44.9628432" lon="6.9080012">
        <ele>2293.36</ele>
        <time>2011-01-30T11:26:54Z</time>
      </trkpt>
      <trkpt lat="44.9626849" lon="6.9082698">
        <ele>2304.9</ele>
        <time>2011-01-30T11:27:08Z</time>
      </trkpt>
      <trkpt lat="44.9625089" lon="6.9085701">
        <ele>2314.99</ele>
        <time>2011-01-30T11:27:23Z</time>
      </trkpt>
      <trkpt lat="44.9623227" lon="6.908888">
        <ele>2327.97</ele>
        <time>2011-01-30T11:27:39Z</time>
      </trkpt>
      <trkpt lat="44.9621405" lon="6.9091972">
        <ele>2337.1</ele>
        <time>2011-01-30T11:27:54Z</time>
      </trkpt>
      <trkpt lat="44.9620085" lon="6.9094193">
        <ele>2344.31</ele>
        <time>2011-01-30T11:28:05Z</time>
      </trkpt>
      <trkpt lat="44.9617375" lon="6.9098737">
        <ele>2362.58</ele>
        <time>2011-01-30T11:28:28Z</time>
      </trkpt>
      <trkpt lat="44.9615981" lon="6.9101104">
        <ele>2372.19</ele>
        <time>2011-01-30T11:28:40Z</time>
      </trkpt>
      <trkpt lat="44.961422" lon="6.9104085">
        <ele>2382.76</ele>
        <time>2011-01-30T11:28:55Z</time>
      </trkpt>
      <trkpt lat="44.9611899" lon="6.9108013">
        <ele>2398.63</ele>
        <time>2011-01-30T11:29:15Z</time>
      </trkpt>
      <trkpt lat="44.9610107" lon="6.9111038">
        <ele>2414.01</ele>
        <time>2011-01-30T11:29:31Z</time>
      </trkpt>
      <trkpt lat="44.960919" lon="6.9112585">
        <ele>2420.26</ele>
        <time>2011-01-30T11:29:39Z</time>
      </trkpt>
      <trkpt lat="44.9607994" lon="6.9114574">
        <ele>2427.95</ele>
        <time>2011-01-30T11:29:49Z</time>
      </trkpt>
      <trkpt lat="44.9605916" lon="6.9118079">
        <ele>2443.33</ele>
        <time>2011-01-30T11:30:07Z</time>
      </trkpt>
      <trkpt lat="44.9604103" lon="6.9121142">
        <ele>2457.27</ele>
        <time>2011-01-30T11:30:23Z</time>
      </trkpt>
      <trkpt lat="44.960115" lon="6.9126084">
        <ele>2476.97</ele>
        <time>2011-01-30T11:30:48Z</time>
      </trkpt>
      <trkpt lat="44.9599223" lon="6.9129345">
        <ele>2493.32</ele>
        <time>2011-01-30T11:31:05Z</time>
      </trkpt>
      <trkpt lat="44.9598041" lon="6.9131357">
        <ele>2500.53</ele>
        <time>2011-01-30T11:31:15Z</time>
      </trkpt>
      <trkpt lat="44.9596711" lon="6.9133613">
        <ele>2508.7</ele>
        <time>2011-01-30T11:31:26Z</time>
      </trkpt>
      <trkpt lat="44.959552" lon="6.9135694">
        <ele>2513.98</ele>
        <time>2011-01-30T11:31:37Z</time>
      </trkpt>
      <trkpt lat="44.9594789" lon="6.9136957">
        <ele>2517.83</ele>
        <time>2011-01-30T11:31:46Z</time>
      </trkpt>
      <trkpt lat="44.9594392" lon="6.9137604">
        <ele>2519.27</ele>
        <time>2011-01-30T11:31:52Z</time>
      </trkpt>
      <trkpt lat="44.9594067" lon="6.9138301">
        <ele>2520.23</ele>
        <time>2011-01-30T11:31:56Z</time>
      </trkpt>
      <trkpt lat="44.959352" lon="6.9138494">
        <ele>2519.75</ele>
        <time>2011-01-30T11:31:59Z</time>
      </trkpt>
      <trkpt lat="44.9592798" lon="6.9138016">
        <ele>2520.23</ele>
        <time>2011-01-30T11:32:04Z</time>
      </trkpt>
      <trkpt lat="44.9592527" lon="6.9137841">
        <ele>2519.27</ele>
        <time>2011-01-30T11:32:09Z</time>
      </trkpt>
      <trkpt lat="44.9592268" lon="6.9137366">
        <ele>2518.31</ele>
        <time>2011-01-30T11:32:15Z</time>
      </trkpt>
      <trkpt lat="44.9592257" lon="6.913735">
        <ele>2517.83</ele>
        <time>2011-01-30T11:32:16Z</time>
      </trkpt>
      <trkpt lat="44.9592891" lon="6.9135366">
        <ele>2512.06</ele>
        <time>2011-01-30T11:34:09Z</time>
      </trkpt>
      <trkpt lat="44.9594083" lon="6.9134095">
        <ele>2508.7</ele>
        <time>2011-01-30T11:34:12Z</time>
      </trkpt>
      <trkpt lat="44.9595432" lon="6.9131968">
        <ele>2504.85</ele>
        <time>2011-01-30T11:34:15Z</time>
      </trkpt>
      <trkpt lat="44.9596326" lon="6.9130573">
        <ele>2501.01</ele>
        <time>2011-01-30T11:34:17Z</time>
      </trkpt>
      <trkpt lat="44.9597777" lon="6.9129031">
        <ele>2492.84</ele>
        <time>2011-01-30T11:34:21Z</time>
      </trkpt>
      <trkpt lat="44.9598239" lon="6.9128554">
        <ele>2488.51</ele>
        <time>2011-01-30T11:34:23Z</time>
      </trkpt>
      <trkpt lat="44.9599363" lon="6.912768">
        <ele>2482.74</ele>
        <time>2011-01-30T11:34:26Z</time>
      </trkpt>
      <trkpt lat="44.9600576" lon="6.9126553">
        <ele>2475.53</ele>
        <time>2011-01-30T11:34:29Z</time>
      </trkpt>
      <trkpt lat="44.9601591" lon="6.9125602">
        <ele>2469.28</ele>
        <time>2011-01-30T11:34:32Z</time>
      </trkpt>
      <trkpt lat="44.9602741" lon="6.9124834">
        <ele>2462.55</ele>
        <time>2011-01-30T11:34:35Z</time>
      </trkpt>
      <trkpt lat="44.9603674" lon="6.9124013">
        <ele>2456.79</ele>
        <time>2011-01-30T11:34:38Z</time>
      </trkpt>
      <trkpt lat="44.9604647" lon="6.9122922">
        <ele>2451.5</ele>
        <time>2011-01-30T11:34:41Z</time>
      </trkpt>
      <trkpt lat="44.9604922" lon="6.9122642">
        <ele>2450.06</ele>
        <time>2011-01-30T11:34:42Z</time>
      </trkpt>
      <trkpt lat="44.9606012" lon="6.9121411">
        <ele>2442.85</ele>
        <time>2011-01-30T11:34:46Z</time>
      </trkpt>
      <trkpt lat="44.9606946" lon="6.9121318">
        <ele>2438.04</ele>
        <time>2011-01-30T11:34:50Z</time>
      </trkpt>
      <trkpt lat="44.9607117" lon="6.9121438">
        <ele>2437.56</ele>
        <time>2011-01-30T11:34:54Z</time>
      </trkpt>
      <trkpt lat="44.9607153" lon="6.9121463">
        <ele>2437.56</ele>
        <time>2011-01-30T11:34:56Z</time>
      </trkpt>
      <trkpt lat="44.9608532" lon="6.9119926">
        <ele>2433.23</ele>
        <time>2011-01-30T11:35:09Z</time>
      </trkpt>
      <trkpt lat="44.9609299" lon="6.9119446">
        <ele>2429.87</ele>
        <time>2011-01-30T11:35:12Z</time>
      </trkpt>
      <trkpt lat="44.9610167" lon="6.9118739">
        <ele>2425.54</ele>
        <time>2011-01-30T11:35:15Z</time>
      </trkpt>
      <trkpt lat="44.9611231" lon="6.9118578">
        <ele>2419.78</ele>
        <time>2011-01-30T11:35:18Z</time>
      </trkpt>
      <trkpt lat="44.9612166" lon="6.9118515">
        <ele>2414.01</ele>
        <time>2011-01-30T11:35:21Z</time>
      </trkpt>
      <trkpt lat="44.961307" lon="6.9118161">
        <ele>2407.28</ele>
        <time>2011-01-30T11:35:24Z</time>
      </trkpt>
      <trkpt lat="44.9614007" lon="6.9118117">
        <ele>2400.55</ele>
        <time>2011-01-30T11:35:27Z</time>
      </trkpt>
      <trkpt lat="44.9615027" lon="6.9117933">
        <ele>2394.3</ele>
        <time>2011-01-30T11:35:30Z</time>
      </trkpt>
      <trkpt lat="44.9615453" lon="6.9117713">
        <ele>2390.94</ele>
        <time>2011-01-30T11:35:32Z</time>
      </trkpt>
      <trkpt lat="44.9616778" lon="6.9116878">
        <ele>2383.73</ele>
        <time>2011-01-30T11:35:36Z</time>
      </trkpt>
      <trkpt lat="44.9617135" lon="6.9116502">
        <ele>2382.28</ele>
        <time>2011-01-30T11:35:37Z</time>
      </trkpt>
      <trkpt lat="44.9618684" lon="6.9114475">
        <ele>2376.04</ele>
        <time>2011-01-30T11:35:42Z</time>
      </trkpt>
      <trkpt lat="44.9619015" lon="6.9114008">
        <ele>2375.07</ele>
        <time>2011-01-30T11:35:43Z</time>
      </trkpt>
      <trkpt lat="44.9619167" lon="6.9112544">
        <ele>2372.67</ele>
        <time>2011-01-30T11:35:47Z</time>
      </trkpt>
      <trkpt lat="44.9619301" lon="6.9111982">
        <ele>2372.19</ele>
        <time>2011-01-30T11:35:49Z</time>
      </trkpt>
      <trkpt lat="44.9619219" lon="6.911175">
        <ele>2372.19</ele>
        <time>2011-01-30T11:35:54Z</time>
      </trkpt>
      <trkpt lat="44.9619891" lon="6.9110216">
        <ele>2371.23</ele>
        <time>2011-01-30T11:36:48Z</time>
      </trkpt>
      <trkpt lat="44.9620379" lon="6.9109196">
        <ele>2369.31</ele>
        <time>2011-01-30T11:36:50Z</time>
      </trkpt>
      <trkpt lat="44.9620555" lon="6.9108315">
        <ele>2367.38</ele>
        <time>2011-01-30T11:36:54Z</time>
      </trkpt>
      <trkpt lat="44.9620546" lon="6.9108329">
        <ele>2367.38</ele>
        <time>2011-01-30T11:36:55Z</time>
      </trkpt>
      <trkpt lat="44.9619732" lon="6.9105889">
        <ele>2366.42</ele>
        <time>2011-01-30T11:37:29Z</time>
      </trkpt>
      <trkpt lat="44.9619996" lon="6.91033">
        <ele>2360.17</ele>
        <time>2011-01-30T11:37:34Z</time>
      </trkpt>
      <trkpt lat="44.9620398" lon="6.9101399">
        <ele>2355.85</ele>
        <time>2011-01-30T11:37:37Z</time>
      </trkpt>
      <trkpt lat="44.9620587" lon="6.9100819">
        <ele>2353.93</ele>
        <time>2011-01-30T11:37:38Z</time>
      </trkpt>
      <trkpt lat="44.9621561" lon="6.9097723">
        <ele>2345.75</ele>
        <time>2011-01-30T11:37:43Z</time>
      </trkpt>
      <trkpt lat="44.9621799" lon="6.9096522">
        <ele>2342.39</ele>
        <time>2011-01-30T11:37:45Z</time>
      </trkpt>
      <trkpt lat="44.9623404" lon="6.9092755">
        <ele>2330.85</ele>
        <time>2011-01-30T11:37:51Z</time>
      </trkpt>
      <trkpt lat="44.9624346" lon="6.9090702">
        <ele>2324.61</ele>
        <time>2011-01-30T11:37:54Z</time>
      </trkpt>
      <trkpt lat="44.9625641" lon="6.9088342">
        <ele>2316.43</ele>
        <time>2011-01-30T11:37:58Z</time>
      </trkpt>
      <trkpt lat="44.9625801" lon="6.9086917">
        <ele>2311.63</ele>
        <time>2011-01-30T11:38:02Z</time>
      </trkpt>
      <trkpt lat="44.9625729" lon="6.9086808">
        <ele>2310.19</ele>
        <time>2011-01-30T11:38:05Z</time>
      </trkpt>
      <trkpt lat="44.9627279" lon="6.9085953">
        <ele>2303.94</ele>
        <time>2011-01-30T11:38:14Z</time>
      </trkpt>
      <trkpt lat="44.9628466" lon="6.9085052">
        <ele>2299.61</ele>
        <time>2011-01-30T11:38:17Z</time>
      </trkpt>
      <trkpt lat="44.9628855" lon="6.9084706">
        <ele>2297.69</ele>
        <time>2011-01-30T11:38:18Z</time>
      </trkpt>
      <trkpt lat="44.9629501" lon="6.9083777">
        <ele>2293.36</ele>
        <time>2011-01-30T11:38:20Z</time>
      </trkpt>
      <trkpt lat="44.9630381" lon="6.9082913">
        <ele>2287.59</ele>
        <time>2011-01-30T11:38:22Z</time>
      </trkpt>
      <trkpt lat="44.9631806" lon="6.9081802">
        <ele>2277.5</ele>
        <time>2011-01-30T11:38:25Z</time>
      </trkpt>
      <trkpt lat="44.9633434" lon="6.9080473">
        <ele>2266.93</ele>
        <time>2011-01-30T11:38:29Z</time>
      </trkpt>
      <trkpt lat="44.9633377" lon="6.9080289">
        <ele>2263.56</ele>
        <time>2011-01-30T11:38:32Z</time>
      </trkpt>
      <trkpt lat="44.9633288" lon="6.9079963">
        <ele>2262.6</ele>
        <time>2011-01-30T11:38:35Z</time>
      </trkpt>
      <trkpt lat="44.9633205" lon="6.9079789">
        <ele>2261.64</ele>
        <time>2011-01-30T11:38:38Z</time>
      </trkpt>
      <trkpt lat="44.9633796" lon="6.9077184">
        <ele>2255.87</ele>
        <time>2011-01-30T11:40:50Z</time>
      </trkpt>
      <trkpt lat="44.9634679" lon="6.9074779">
        <ele>2250.58</ele>
        <time>2011-01-30T11:40:53Z</time>
      </trkpt>
      <trkpt lat="44.9635601" lon="6.907261">
        <ele>2247.22</ele>
        <time>2011-01-30T11:40:55Z</time>
      </trkpt>
      <trkpt lat="44.9636673" lon="6.9069511">
        <ele>2241.93</ele>
        <time>2011-01-30T11:40:58Z</time>
      </trkpt>
      <trkpt lat="44.9637366" lon="6.906488">
        <ele>2234.24</ele>
        <time>2011-01-30T11:41:03Z</time>
      </trkpt>
      <trkpt lat="44.9637634" lon="6.9064124">
        <ele>2232.32</ele>
        <time>2011-01-30T11:41:04Z</time>
      </trkpt>
      <trkpt lat="44.9639431" lon="6.9059534">
        <ele>2223.19</ele>
        <time>2011-01-30T11:41:10Z</time>
      </trkpt>
      <trkpt lat="44.9639994" lon="6.9057823">
        <ele>2220.78</ele>
        <time>2011-01-30T11:41:12Z</time>
      </trkpt>
      <trkpt lat="44.9641843" lon="6.9054758">
        <ele>2214.53</ele>
        <time>2011-01-30T11:41:16Z</time>
      </trkpt>
      <trkpt lat="44.9642254" lon="6.9054149">
        <ele>2213.09</ele>
        <time>2011-01-30T11:41:17Z</time>
      </trkpt>
      <trkpt lat="44.9642576" lon="6.9053454">
        <ele>2209.25</ele>
        <time>2011-01-30T11:41:20Z</time>
      </trkpt>
      <trkpt lat="44.9642425" lon="6.9053588">
        <ele>2208.77</ele>
        <time>2011-01-30T11:41:23Z</time>
      </trkpt>
      <trkpt lat="44.9642342" lon="6.905247">
        <ele>2206.36</ele>
        <time>2011-01-30T11:41:27Z</time>
      </trkpt>
      <trkpt lat="44.9641797" lon="6.9050884">
        <ele>2204.44</ele>
        <time>2011-01-30T11:41:29Z</time>
      </trkpt>
      <trkpt lat="44.9642204" lon="6.9048712">
        <ele>2201.08</ele>
        <time>2011-01-30T11:41:31Z</time>
      </trkpt>
      <trkpt lat="44.9642613" lon="6.9046232">
        <ele>2196.27</ele>
        <time>2011-01-30T11:41:33Z</time>
      </trkpt>
      <trkpt lat="44.9643638" lon="6.9044522">
        <ele>2192.42</ele>
        <time>2011-01-30T11:41:35Z</time>
      </trkpt>
      <trkpt lat="44.9644902" lon="6.904372">
        <ele>2187.62</ele>
        <time>2011-01-30T11:41:37Z</time>
      </trkpt>
      <trkpt lat="44.9646661" lon="6.9041622">
        <ele>2176.08</ele>
        <time>2011-01-30T11:41:41Z</time>
      </trkpt>
      <trkpt lat="44.9648212" lon="6.9039363">
        <ele>2165.51</ele>
        <time>2011-01-30T11:41:44Z</time>
      </trkpt>
      <trkpt lat="44.9649552" lon="6.9036017">
        <ele>2151.57</ele>
        <time>2011-01-30T11:41:48Z</time>
      </trkpt>
      <trkpt lat="44.9650259" lon="6.9033785">
        <ele>2143.88</ele>
        <time>2011-01-30T11:41:50Z</time>
      </trkpt>
      <trkpt lat="44.9653336" lon="6.9030159">
        <ele>2128.02</ele>
        <time>2011-01-30T11:41:54Z</time>
      </trkpt>
      <trkpt lat="44.9655718" lon="6.902708">
        <ele>2117.44</ele>
        <time>2011-01-30T11:41:58Z</time>
      </trkpt>
      <trkpt lat="44.9658091" lon="6.9024617">
        <ele>2111.19</ele>
        <time>2011-01-30T11:42:02Z</time>
      </trkpt>
      <trkpt lat="44.9659104" lon="6.902428">
        <ele>2107.83</ele>
        <time>2011-01-30T11:42:04Z</time>
      </trkpt>
      <trkpt lat="44.9660297" lon="6.9024533">
        <ele>2107.83</ele>
        <time>2011-01-30T11:42:09Z</time>
      </trkpt>
      <trkpt lat="44.9660277" lon="6.9024569">
        <ele>2108.31</ele>
        <time>2011-01-30T11:42:11Z</time>
      </trkpt>
      <trkpt lat="44.9659535" lon="6.9027444">
        <ele>2113.6</ele>
        <time>2011-01-30T11:43:46Z</time>
      </trkpt>
      <trkpt lat="44.9659375" lon="6.9027882">
        <ele>2114.08</ele>
        <time>2011-01-30T11:43:52Z</time>
      </trkpt>
      <trkpt lat="44.9659318" lon="6.9027941">
        <ele>2114.56</ele>
        <time>2011-01-30T11:43:54Z</time>
      </trkpt>
      <trkpt lat="44.96587" lon="6.9029017">
        <ele>2115.04</ele>
        <time>2011-01-30T11:44:01Z</time>
      </trkpt>
      <trkpt lat="44.9657898" lon="6.9030184">
        <ele>2117.92</ele>
        <time>2011-01-30T11:44:07Z</time>
      </trkpt>
      <trkpt lat="44.9657055" lon="6.9031571">
        <ele>2121.77</ele>
        <time>2011-01-30T11:44:14Z</time>
      </trkpt>
      <trkpt lat="44.9655859" lon="6.9033539">
        <ele>2129.46</ele>
        <time>2011-01-30T11:44:24Z</time>
      </trkpt>
      <trkpt lat="44.9654771" lon="6.9035271">
        <ele>2136.19</ele>
        <time>2011-01-30T11:44:33Z</time>
      </trkpt>
      <trkpt lat="44.9653651" lon="6.903696">
        <ele>2139.07</ele>
        <time>2011-01-30T11:44:41Z</time>
      </trkpt>
      <trkpt lat="44.9652189" lon="6.9039426">
        <ele>2147.24</ele>
        <time>2011-01-30T11:44:53Z</time>
      </trkpt>
      <trkpt lat="44.9650162" lon="6.904283">
        <ele>2161.66</ele>
        <time>2011-01-30T11:45:10Z</time>
      </trkpt>
      <trkpt lat="44.9648559" lon="6.9045559">
        <ele>2174.64</ele>
        <time>2011-01-30T11:45:24Z</time>
      </trkpt>
      <trkpt lat="44.9646963" lon="6.9048326">
        <ele>2184.73</ele>
        <time>2011-01-30T11:45:38Z</time>
      </trkpt>
      <trkpt lat="44.9645445" lon="6.9051046">
        <ele>2197.23</ele>
        <time>2011-01-30T11:45:52Z</time>
      </trkpt>
      <trkpt lat="44.9644475" lon="6.905267">
        <ele>2203</ele>
        <time>2011-01-30T11:46:00Z</time>
      </trkpt>
      <trkpt lat="44.9643152" lon="6.9054863">
        <ele>2212.13</ele>
        <time>2011-01-30T11:46:11Z</time>
      </trkpt>
      <trkpt lat="44.9641913" lon="6.9056955">
        <ele>2217.9</ele>
        <time>2011-01-30T11:46:21Z</time>
      </trkpt>
      <trkpt lat="44.9640353" lon="6.9059627">
        <ele>2227.51</ele>
        <time>2011-01-30T11:46:34Z</time>
      </trkpt>
      <trkpt lat="44.9639229" lon="6.9061508">
        <ele>2231.36</ele>
        <time>2011-01-30T11:46:43Z</time>
      </trkpt>
      <trkpt lat="44.9637106" lon="6.9065014">
        <ele>2239.53</ele>
        <time>2011-01-30T11:47:00Z</time>
      </trkpt>
      <trkpt lat="44.963519" lon="6.9068213">
        <ele>2251.06</ele>
        <time>2011-01-30T11:47:16Z</time>
      </trkpt>
      <trkpt lat="44.9633433" lon="6.907117">
        <ele>2262.12</ele>
        <time>2011-01-30T11:47:31Z</time>
      </trkpt>
      <trkpt lat="44.9631359" lon="6.9074657">
        <ele>2271.73</ele>
        <time>2011-01-30T11:47:48Z</time>
      </trkpt>
      <trkpt lat="44.9629113" lon="6.9078311">
        <ele>2282.79</ele>
        <time>2011-01-30T11:48:06Z</time>
      </trkpt>
      <trkpt lat="44.9626875" lon="6.9082161">
        <ele>2301.05</ele>
        <time>2011-01-30T11:48:26Z</time>
      </trkpt>
      <trkpt lat="44.9625951" lon="6.9083743">
        <ele>2306.34</ele>
        <time>2011-01-30T11:48:34Z</time>
      </trkpt>
      <trkpt lat="44.962417" lon="6.908675">
        <ele>2317.4</ele>
        <time>2011-01-30T11:48:49Z</time>
      </trkpt>
      <trkpt lat="44.9622694" lon="6.9089305">
        <ele>2328.45</ele>
        <time>2011-01-30T11:49:02Z</time>
      </trkpt>
      <trkpt lat="44.9620498" lon="6.9092953">
        <ele>2336.14</ele>
        <time>2011-01-30T11:49:20Z</time>
      </trkpt>
      <trkpt lat="44.9618321" lon="6.9096587">
        <ele>2348.64</ele>
        <time>2011-01-30T11:49:38Z</time>
      </trkpt>
      <trkpt lat="44.9616373" lon="6.9099923">
        <ele>2363.06</ele>
        <time>2011-01-30T11:49:55Z</time>
      </trkpt>
      <trkpt lat="44.9615049" lon="6.9102181">
        <ele>2370.75</ele>
        <time>2011-01-30T11:50:06Z</time>
      </trkpt>
      <trkpt lat="44.9613857" lon="6.9104187">
        <ele>2377.96</ele>
        <time>2011-01-30T11:50:16Z</time>
      </trkpt>
      <trkpt lat="44.9612687" lon="6.9106171">
        <ele>2385.65</ele>
        <time>2011-01-30T11:50:26Z</time>
      </trkpt>
      <trkpt lat="44.9611566" lon="6.910805">
        <ele>2394.3</ele>
        <time>2011-01-30T11:50:36Z</time>
      </trkpt>
      <trkpt lat="44.9610157" lon="6.9110305">
        <ele>2404.39</ele>
        <time>2011-01-30T11:50:48Z</time>
      </trkpt>
      <trkpt lat="44.9608904" lon="6.9112429">
        <ele>2414.01</ele>
        <time>2011-01-30T11:50:59Z</time>
      </trkpt>
      <trkpt lat="44.9608004" lon="6.9114013">
        <ele>2421.22</ele>
        <time>2011-01-30T11:51:07Z</time>
      </trkpt>
      <trkpt lat="44.9607318" lon="6.9115242">
        <ele>2426.02</ele>
        <time>2011-01-30T11:51:13Z</time>
      </trkpt>
      <trkpt lat="44.9606603" lon="6.9116416">
        <ele>2430.83</ele>
        <time>2011-01-30T11:51:19Z</time>
      </trkpt>
      <trkpt lat="44.9605489" lon="6.9118337">
        <ele>2439.48</ele>
        <time>2011-01-30T11:51:29Z</time>
      </trkpt>
      <trkpt lat="44.9605398" lon="6.9118477">
        <ele>2440.44</ele>
        <time>2011-01-30T11:51:30Z</time>
      </trkpt>
      <trkpt lat="44.9605332" lon="6.9118603">
        <ele>2441.89</ele>
        <time>2011-01-30T11:51:35Z</time>
      </trkpt>
      <trkpt lat="44.9605321" lon="6.9118615">
        <ele>2441.89</ele>
        <time>2011-01-30T11:51:36Z</time>
      </trkpt>
      <trkpt lat="44.960301" lon="6.9122479">
        <ele>2456.31</ele>
        <time>2011-01-30T11:53:45Z</time>
      </trkpt>
      <trkpt lat="44.9601423" lon="6.9125093">
        <ele>2467.36</ele>
        <time>2011-01-30T11:53:59Z</time>
      </trkpt>
      <trkpt lat="44.9600503" lon="6.9126496">
        <ele>2473.13</ele>
        <time>2011-01-30T11:54:09Z</time>
      </trkpt>
      <trkpt lat="44.959902" lon="6.9128884">
        <ele>2483.7</ele>
        <time>2011-01-30T11:54:22Z</time>
      </trkpt>
      <trkpt lat="44.9598216" lon="6.9130186">
        <ele>2488.99</ele>
        <time>2011-01-30T11:54:29Z</time>
      </trkpt>
      <trkpt lat="44.9596633" lon="6.9132699">
        <ele>2498.6</ele>
        <time>2011-01-30T11:54:42Z</time>
      </trkpt>
      <trkpt lat="44.9595281" lon="6.9134951">
        <ele>2503.41</ele>
        <time>2011-01-30T11:54:53Z</time>
      </trkpt>
      <trkpt lat="44.9594266" lon="6.9136809">
        <ele>2511.1</ele>
        <time>2011-01-30T11:55:02Z</time>
      </trkpt>
      <trkpt lat="44.9593996" lon="6.9137429">
        <ele>2512.54</ele>
        <time>2011-01-30T11:55:05Z</time>
      </trkpt>
      <trkpt lat="44.9593437" lon="6.9138309">
        <ele>2513.98</ele>
        <time>2011-01-30T11:55:10Z</time>
      </trkpt>
      <trkpt lat="44.959228" lon="6.9138125">
        <ele>2514.47</ele>
        <time>2011-01-30T11:55:14Z</time>
      </trkpt>
      <trkpt lat="44.9592153" lon="6.9137754">
        <ele>2513.98</ele>
        <time>2011-01-30T11:55:18Z</time>
      </trkpt>
      <trkpt lat="44.9593432" lon="6.9135595">
        <ele>2510.62</ele>
        <time>2011-01-30T11:56:30Z</time>
      </trkpt>
      <trkpt lat="44.9595312" lon="6.9135535">
        <ele>2506.29</ele>
        <time>2011-01-30T11:56:33Z</time>
      </trkpt>
      <trkpt lat="44.9595888" lon="6.9135784">
        <ele>2504.85</ele>
        <time>2011-01-30T11:56:34Z</time>
      </trkpt>
      <trkpt lat="44.9597622" lon="6.913474">
        <ele>2499.57</ele>
        <time>2011-01-30T11:56:38Z</time>
      </trkpt>
      <trkpt lat="44.9599016" lon="6.9132707">
        <ele>2493.32</ele>
        <time>2011-01-30T11:56:42Z</time>
      </trkpt>
      <trkpt lat="44.9600009" lon="6.913108">
        <ele>2488.51</ele>
        <time>2011-01-30T11:56:45Z</time>
      </trkpt>
      <trkpt lat="44.9601068" lon="6.9129295">
        <ele>2482.74</ele>
        <time>2011-01-30T11:56:48Z</time>
      </trkpt>
      <trkpt lat="44.9602319" lon="6.9128057">
        <ele>2475.05</ele>
        <time>2011-01-30T11:56:51Z</time>
      </trkpt>
      <trkpt lat="44.9604196" lon="6.9127685">
        <ele>2467.84</ele>
        <time>2011-01-30T11:56:55Z</time>
      </trkpt>
      <trkpt lat="44.9605678" lon="6.9127031">
        <ele>2461.11</ele>
        <time>2011-01-30T11:57:00Z</time>
      </trkpt>
      <trkpt lat="44.9606288" lon="6.9126955">
        <ele>2458.71</ele>
        <time>2011-01-30T11:57:05Z</time>
      </trkpt>
      <trkpt lat="44.9606108" lon="6.9126786">
        <ele>2457.75</ele>
        <time>2011-01-30T11:57:10Z</time>
      </trkpt>
      <trkpt lat="44.9606104" lon="6.9126779">
        <ele>2457.75</ele>
        <time>2011-01-30T11:57:11Z</time>
      </trkpt>
      <trkpt lat="44.9608007" lon="6.9126954">
        <ele>2450.54</ele>
        <time>2011-01-30T11:57:46Z</time>
      </trkpt>
      <trkpt lat="44.9608771" lon="6.9127202">
        <ele>2447.65</ele>
        <time>2011-01-30T11:57:53Z</time>
      </trkpt>
      <trkpt lat="44.9610371" lon="6.9127123">
        <ele>2441.41</ele>
        <time>2011-01-30T11:57:58Z</time>
      </trkpt>
      <trkpt lat="44.9611224" lon="6.912596">
        <ele>2434.2</ele>
        <time>2011-01-30T11:58:01Z</time>
      </trkpt>
      <trkpt lat="44.9611738" lon="6.9126141">
        <ele>2432.75</ele>
        <time>2011-01-30T11:58:02Z</time>
      </trkpt>
      <trkpt lat="44.9613198" lon="6.9126725">
        <ele>2425.06</ele>
        <time>2011-01-30T11:58:07Z</time>
      </trkpt>
      <trkpt lat="44.9613309" lon="6.9126647">
        <ele>2423.62</ele>
        <time>2011-01-30T11:58:10Z</time>
      </trkpt>
      <trkpt lat="44.9613881" lon="6.9124849">
        <ele>2417.85</ele>
        <time>2011-01-30T11:58:34Z</time>
      </trkpt>
      <trkpt lat="44.9614526" lon="6.9123331">
        <ele>2412.09</ele>
        <time>2011-01-30T11:58:37Z</time>
      </trkpt>
      <trkpt lat="44.9615295" lon="6.912185">
        <ele>2406.32</ele>
        <time>2011-01-30T11:58:40Z</time>
      </trkpt>
      <trkpt lat="44.9615784" lon="6.9120623">
        <ele>2400.07</ele>
        <time>2011-01-30T11:58:43Z</time>
      </trkpt>
      <trkpt lat="44.9616515" lon="6.911979">
        <ele>2393.82</ele>
        <time>2011-01-30T11:58:47Z</time>
      </trkpt>
      <trkpt lat="44.9616732" lon="6.9119387">
        <ele>2390.94</ele>
        <time>2011-01-30T11:58:52Z</time>
      </trkpt>
      <trkpt lat="44.9616454" lon="6.9118857">
        <ele>2389.97</ele>
        <time>2011-01-30T11:58:55Z</time>
      </trkpt>
      <trkpt lat="44.9616794" lon="6.9118156">
        <ele>2387.57</ele>
        <time>2011-01-30T11:59:00Z</time>
      </trkpt>
      <trkpt lat="44.9616701" lon="6.9117428">
        <ele>2385.65</ele>
        <time>2011-01-30T11:59:04Z</time>
      </trkpt>
      <trkpt lat="44.9616482" lon="6.9116064">
        <ele>2383.25</ele>
        <time>2011-01-30T11:59:07Z</time>
      </trkpt>
      <trkpt lat="44.9616437" lon="6.911431">
        <ele>2379.88</ele>
        <time>2011-01-30T11:59:10Z</time>
      </trkpt>
      <trkpt lat="44.9617189" lon="6.9112112">
        <ele>2375.07</ele>
        <time>2011-01-30T11:59:14Z</time>
      </trkpt>
      <trkpt lat="44.9617551" lon="6.9110749">
        <ele>2372.67</ele>
        <time>2011-01-30T11:59:16Z</time>
      </trkpt>
      <trkpt lat="44.9618354" lon="6.9108637">
        <ele>2368.35</ele>
        <time>2011-01-30T11:59:20Z</time>
      </trkpt>
      <trkpt lat="44.9618794" lon="6.9107196">
        <ele>2365.46</ele>
        <time>2011-01-30T11:59:23Z</time>
      </trkpt>
      <trkpt lat="44.9619015" lon="6.9106989">
        <ele>2364.98</ele>
        <time>2011-01-30T11:59:24Z</time>
      </trkpt>
      <trkpt lat="44.9619634" lon="6.9106538">
        <ele>2363.54</ele>
        <time>2011-01-30T11:59:29Z</time>
      </trkpt>
      <trkpt lat="44.9619634" lon="6.9106513">
        <ele>2363.06</ele>
        <time>2011-01-30T11:59:30Z</time>
      </trkpt>
      <trkpt lat="44.9619712" lon="6.9104534">
        <ele>2360.17</ele>
        <time>2011-01-30T11:59:51Z</time>
      </trkpt>
      <trkpt lat="44.9619617" lon="6.910225">
        <ele>2355.37</ele>
        <time>2011-01-30T11:59:54Z</time>
      </trkpt>
      <trkpt lat="44.9619674" lon="6.9100551">
        <ele>2351.52</ele>
        <time>2011-01-30T11:59:56Z</time>
      </trkpt>
      <trkpt lat="44.9620211" lon="6.9098076">
        <ele>2344.31</ele>
        <time>2011-01-30T11:59:59Z</time>
      </trkpt>
      <trkpt lat="44.9620418" lon="6.9097373">
        <ele>2342.39</ele>
        <time>2011-01-30T12:00:00Z</time>
      </trkpt>
      <trkpt lat="44.9622446" lon="6.909433">
        <ele>2328.93</ele>
        <time>2011-01-30T12:00:05Z</time>
      </trkpt>
      <trkpt lat="44.9623337" lon="6.9092553">
        <ele>2321.72</ele>
        <time>2011-01-30T12:00:08Z</time>
      </trkpt>
      <trkpt lat="44.9624464" lon="6.9090937">
        <ele>2314.99</ele>
        <time>2011-01-30T12:00:11Z</time>
      </trkpt>
      <trkpt lat="44.9625363" lon="6.9089517">
        <ele>2309.22</ele>
        <time>2011-01-30T12:00:14Z</time>
      </trkpt>
      <trkpt lat="44.9625513" lon="6.9088497">
        <ele>2305.86</ele>
        <time>2011-01-30T12:00:17Z</time>
      </trkpt>
      <trkpt lat="44.9625512" lon="6.9088357">
        <ele>2305.86</ele>
        <time>2011-01-30T12:00:18Z</time>
      </trkpt>
      <trkpt lat="44.9625434" lon="6.9088247">
        <ele>2306.34</ele>
        <time>2011-01-30T12:00:22Z</time>
      </trkpt>
      <trkpt lat="44.9626528" lon="6.9087145">
        <ele>2305.86</ele>
        <time>2011-01-30T12:00:39Z</time>
      </trkpt>
      <trkpt lat="44.9627282" lon="6.9086535">
        <ele>2302.98</ele>
        <time>2011-01-30T12:00:41Z</time>
      </trkpt>
      <trkpt lat="44.9628211" lon="6.9085911">
        <ele>2298.65</ele>
        <time>2011-01-30T12:00:43Z</time>
      </trkpt>
      <trkpt lat="44.9629882" lon="6.9084274">
        <ele>2289.04</ele>
        <time>2011-01-30T12:00:47Z</time>
      </trkpt>
      <trkpt lat="44.9631387" lon="6.9082181">
        <ele>2277.98</ele>
        <time>2011-01-30T12:00:51Z</time>
      </trkpt>
      <trkpt lat="44.9632112" lon="6.9080509">
        <ele>2268.85</ele>
        <time>2011-01-30T12:00:54Z</time>
      </trkpt>
      <trkpt lat="44.9632503" lon="6.9079649">
        <ele>2264.52</ele>
        <time>2011-01-30T12:00:56Z</time>
      </trkpt>
      <trkpt lat="44.9632956" lon="6.9077738">
        <ele>2258.27</ele>
        <time>2011-01-30T12:00:59Z</time>
      </trkpt>
      <trkpt lat="44.9633407" lon="6.9077045">
        <ele>2253.95</ele>
        <time>2011-01-30T12:01:03Z</time>
      </trkpt>
      <trkpt lat="44.9633328" lon="6.9077141">
        <ele>2253.95</ele>
        <time>2011-01-30T12:01:06Z</time>
      </trkpt>
      <trkpt lat="44.9633547" lon="6.9076339">
        <ele>2253.47</ele>
        <time>2011-01-30T12:01:29Z</time>
      </trkpt>
      <trkpt lat="44.9634946" lon="6.9074681">
        <ele>2248.66</ele>
        <time>2011-01-30T12:01:32Z</time>
      </trkpt>
      <trkpt lat="44.9636731" lon="6.9070996">
        <ele>2240.97</ele>
        <time>2011-01-30T12:01:36Z</time>
      </trkpt>
      <trkpt lat="44.9638539" lon="6.9068">
        <ele>2233.76</ele>
        <time>2011-01-30T12:01:40Z</time>
      </trkpt>
      <trkpt lat="44.9639991" lon="6.9067041">
        <ele>2228.47</ele>
        <time>2011-01-30T12:01:44Z</time>
      </trkpt>
      <trkpt lat="44.9639919" lon="6.9067143">
        <ele>2227.99</ele>
        <time>2011-01-30T12:01:48Z</time>
      </trkpt>
      <trkpt lat="44.9640856" lon="6.9064092">
        <ele>2222.22</ele>
        <time>2011-01-30T12:01:59Z</time>
      </trkpt>
      <trkpt lat="44.9641874" lon="6.9061741">
        <ele>2216.94</ele>
        <time>2011-01-30T12:02:02Z</time>
      </trkpt>
      <trkpt lat="44.9642491" lon="6.9060413">
        <ele>2214.53</ele>
        <time>2011-01-30T12:02:04Z</time>
      </trkpt>
      <trkpt lat="44.9642952" lon="6.9058989">
        <ele>2211.65</ele>
        <time>2011-01-30T12:02:08Z</time>
      </trkpt>
      <trkpt lat="44.9642934" lon="6.9058943">
        <ele>2210.69</ele>
        <time>2011-01-30T12:02:10Z</time>
      </trkpt>
      <trkpt lat="44.9645021" lon="6.9057664">
        <ele>2204.92</ele>
        <time>2011-01-30T12:02:51Z</time>
      </trkpt>
      <trkpt lat="44.9645963" lon="6.9057504">
        <ele>2203.96</ele>
        <time>2011-01-30T12:02:58Z</time>
      </trkpt>
      <trkpt lat="44.9646348" lon="6.9057435">
        <ele>2203.48</ele>
        <time>2011-01-30T12:03:03Z</time>
      </trkpt>
      <trkpt lat="44.9648874" lon="6.9056847">
        <ele>2198.19</ele>
        <time>2011-01-30T12:03:23Z</time>
      </trkpt>
      <trkpt lat="44.9650339" lon="6.90564">
        <ele>2193.39</ele>
        <time>2011-01-30T12:03:27Z</time>
      </trkpt>
      <trkpt lat="44.9650677" lon="6.9056209">
        <ele>2191.94</ele>
        <time>2011-01-30T12:03:28Z</time>
      </trkpt>
      <trkpt lat="44.9651852" lon="6.9055311">
        <ele>2185.69</ele>
        <time>2011-01-30T12:03:32Z</time>
      </trkpt>
      <trkpt lat="44.9652556" lon="6.9054663">
        <ele>2181.85</ele>
        <time>2011-01-30T12:03:34Z</time>
      </trkpt>
      <trkpt lat="44.9653058" lon="6.9052712">
        <ele>2175.6</ele>
        <time>2011-01-30T12:03:39Z</time>
      </trkpt>
      <trkpt lat="44.9653961" lon="6.9051662">
        <ele>2170.79</ele>
        <time>2011-01-30T12:03:42Z</time>
      </trkpt>
      <trkpt lat="44.9655905" lon="6.9050708">
        <ele>2161.66</ele>
        <time>2011-01-30T12:03:47Z</time>
      </trkpt>
      <trkpt lat="44.9657071" lon="6.9050045">
        <ele>2156.37</ele>
        <time>2011-01-30T12:03:50Z</time>
      </trkpt>
      <trkpt lat="44.9657845" lon="6.9050478">
        <ele>2150.61</ele>
        <time>2011-01-30T12:03:54Z</time>
      </trkpt>
      <trkpt lat="44.9657791" lon="6.9050543">
        <ele>2150.13</ele>
        <time>2011-01-30T12:03:56Z</time>
      </trkpt>
      <trkpt lat="44.9659007" lon="6.904889">
        <ele>2142.92</ele>
        <time>2011-01-30T12:04:35Z</time>
      </trkpt>
      <trkpt lat="44.9659811" lon="6.9047942">
        <ele>2140.51</ele>
        <time>2011-01-30T12:04:38Z</time>
      </trkpt>
      <trkpt lat="44.9659949" lon="6.904789">
        <ele>2140.03</ele>
        <time>2011-01-30T12:04:42Z</time>
      </trkpt>
      <trkpt lat="44.9660349" lon="6.9046532">
        <ele>2138.59</ele>
        <time>2011-01-30T12:04:57Z</time>
      </trkpt>
      <trkpt lat="44.9661118" lon="6.9043653">
        <ele>2135.71</ele>
        <time>2011-01-30T12:05:00Z</time>
      </trkpt>
      <trkpt lat="44.9661512" lon="6.9042434">
        <ele>2134.26</ele>
        <time>2011-01-30T12:05:01Z</time>
      </trkpt>
      <trkpt lat="44.9664753" lon="6.9038271">
        <ele>2123.69</ele>
        <time>2011-01-30T12:05:06Z</time>
      </trkpt>
      <trkpt lat="44.9665316" lon="6.9036381">
        <ele>2117.92</ele>
        <time>2011-01-30T12:05:09Z</time>
      </trkpt>
      <trkpt lat="44.9664675" lon="6.903522">
        <ele>2115.04</ele>
        <time>2011-01-30T12:05:12Z</time>
      </trkpt>
      <trkpt lat="44.9664244" lon="6.9034575">
        <ele>2113.12</ele>
        <time>2011-01-30T12:05:15Z</time>
      </trkpt>
      <trkpt lat="44.9663121" lon="6.9032655">
        <ele>2108.31</ele>
        <time>2011-01-30T12:05:23Z</time>
      </trkpt>
      <trkpt lat="44.9661969" lon="6.9030462">
        <ele>2104.94</ele>
        <time>2011-01-30T12:05:28Z</time>
      </trkpt>
      <trkpt lat="44.9661297" lon="6.9028911">
        <ele>2103.98</ele>
        <time>2011-01-30T12:05:33Z</time>
      </trkpt>
      <trkpt lat="44.9660964" lon="6.9028075">
        <ele>2103.98</ele>
        <time>2011-01-30T12:05:38Z</time>
      </trkpt>
      <trkpt lat="44.9660733" lon="6.9027352">
        <ele>2103.98</ele>
        <time>2011-01-30T12:05:42Z</time>
      </trkpt>
      <trkpt lat="44.9660368" lon="6.9026103">
        <ele>2104.46</ele>
        <time>2011-01-30T12:05:48Z</time>
      </trkpt>
      <trkpt lat="44.9660342" lon="6.9025874">
        <ele>2104.46</ele>
        <time>2011-01-30T12:05:49Z</time>
      </trkpt>
      <trkpt lat="44.9660523" lon="6.9024911">
        <ele>2104.94</ele>
        <time>2011-01-30T12:05:54Z</time>
      </trkpt>
      <trkpt lat="44.9660552" lon="6.9024641">
        <ele>2105.42</ele>
        <time>2011-01-30T12:05:58Z</time>
      </trkpt>
      <trkpt lat="44.9660836" lon="6.9023959">
        <ele>2105.42</ele>
        <time>2011-01-30T12:06:04Z</time>
      </trkpt>
      <trkpt lat="44.9660862" lon="6.902394">
        <ele>2105.42</ele>
        <time>2011-01-30T12:06:05Z</time>
      </trkpt>
      <trkpt lat="44.9660078" lon="6.9023916">
        <ele>2078.99</ele>
        <time>2011-01-30T12:08:13Z</time>
      </trkpt>
      <trkpt lat="44.9660561" lon="6.9023972">
        <ele>2077.07</ele>
        <time>2011-01-30T12:08:20Z</time>
      </trkpt>
      <trkpt lat="44.9660833" lon="6.9024673">
        <ele>2079.95</ele>
        <time>2011-01-30T12:08:26Z</time>
      </trkpt>
      <trkpt lat="44.9661126" lon="6.9025258">
        <ele>2083.31</ele>
        <time>2011-01-30T12:08:29Z</time>
      </trkpt>
      <trkpt lat="44.9660524" lon="6.9025453">
        <ele>2081.87</ele>
        <time>2011-01-30T12:08:33Z</time>
      </trkpt>
      <trkpt lat="44.965972" lon="6.9022559">
        <ele>2102.06</ele>
        <time>2011-01-30T12:15:37Z</time>
      </trkpt>
      <trkpt lat="44.9659177" lon="6.9022652">
        <ele>2079.47</ele>
        <time>2011-01-30T12:15:38Z</time>
      </trkpt>
      <trkpt lat="44.9660473" lon="6.9024823">
        <ele>2078.51</ele>
        <time>2011-01-30T12:15:40Z</time>
      </trkpt>
      <trkpt lat="44.9660564" lon="6.9024843">
        <ele>2080.91</ele>
        <time>2011-01-30T12:15:45Z</time>
      </trkpt>
      <trkpt lat="44.9660091" lon="6.9024669">
        <ele>2076.1</ele>
        <time>2011-01-30T12:15:48Z</time>
      </trkpt>
      <trkpt lat="44.9660492" lon="6.9025403">
        <ele>2075.14</ele>
        <time>2011-01-30T12:15:57Z</time>
      </trkpt>
      <trkpt lat="44.9658918" lon="6.9024435">
        <ele>2078.03</ele>
        <time>2011-01-30T12:16:04Z</time>
      </trkpt>
      <trkpt lat="44.9659224" lon="6.9024278">
        <ele>2089.56</ele>
        <time>2011-01-30T12:17:27Z</time>
      </trkpt>
      <trkpt lat="44.9660613" lon="6.9024483">
        <ele>2076.1</ele>
        <time>2011-01-30T12:18:03Z</time>
      </trkpt>
      <trkpt lat="44.9662176" lon="6.9024186">
        <ele>2067.45</ele>
        <time>2011-01-30T12:19:14Z</time>
      </trkpt>
      <trkpt lat="44.9607113" lon="6.8896314">
        <ele>1941.04</ele>
        <time>2011-01-30T14:37:42Z</time>
      </trkpt>
      <trkpt lat="44.9607116" lon="6.8896315">
        <ele>1941.04</ele>
        <time>2011-01-30T14:37:43Z</time>
      </trkpt>
      <trkpt lat="44.960891" lon="6.8894781">
        <ele>1938.16</ele>
        <time>2011-01-30T14:39:42Z</time>
      </trkpt>
      <trkpt lat="44.9610676" lon="6.8893527">
        <ele>1936.23</ele>
        <time>2011-01-30T14:39:46Z</time>
      </trkpt>
      <trkpt lat="44.9613503" lon="6.8892609">
        <ele>1931.91</ele>
        <time>2011-01-30T14:39:51Z</time>
      </trkpt>
      <trkpt lat="44.9617455" lon="6.8892135">
        <ele>1928.54</ele>
        <time>2011-01-30T14:39:57Z</time>
      </trkpt>
      <trkpt lat="44.962231" lon="6.8891804">
        <ele>1924.22</ele>
        <time>2011-01-30T14:40:04Z</time>
      </trkpt>
      <trkpt lat="44.9625632" lon="6.8891435">
        <ele>1921.33</ele>
        <time>2011-01-30T14:40:09Z</time>
      </trkpt>
      <trkpt lat="44.9629247" lon="6.8890886">
        <ele>1922.29</ele>
        <time>2011-01-30T14:40:15Z</time>
      </trkpt>
      <trkpt lat="44.9633177" lon="6.8890171">
        <ele>1918.93</ele>
        <time>2011-01-30T14:40:22Z</time>
      </trkpt>
      <trkpt lat="44.9636941" lon="6.8889487">
        <ele>1913.64</ele>
        <time>2011-01-30T14:40:27Z</time>
      </trkpt>
      <trkpt lat="44.9642907" lon="6.8888136">
        <ele>1908.35</ele>
        <time>2011-01-30T14:40:34Z</time>
      </trkpt>
      <trkpt lat="44.9647393" lon="6.88868">
        <ele>1905.47</ele>
        <time>2011-01-30T14:40:41Z</time>
      </trkpt>
      <trkpt lat="44.9647902" lon="6.8886737">
        <ele>1905.47</ele>
        <time>2011-01-30T14:40:42Z</time>
      </trkpt>
      <trkpt lat="44.9650517" lon="6.888799">
        <ele>1901.14</ele>
        <time>2011-01-30T14:40:47Z</time>
      </trkpt>
      <trkpt lat="44.9653765" lon="6.8890259">
        <ele>1892.97</ele>
        <time>2011-01-30T14:40:52Z</time>
      </trkpt>
      <trkpt lat="44.965715" lon="6.8892912">
        <ele>1886.24</ele>
        <time>2011-01-30T14:40:57Z</time>
      </trkpt>
      <trkpt lat="44.9658451" lon="6.8893958">
        <ele>1883.84</ele>
        <time>2011-01-30T14:40:59Z</time>
      </trkpt>
      <trkpt lat="44.9661099" lon="6.8896034">
        <ele>1877.59</ele>
        <time>2011-01-30T14:41:03Z</time>
      </trkpt>
      <trkpt lat="44.9661809" lon="6.8896486">
        <ele>1876.15</ele>
        <time>2011-01-30T14:41:04Z</time>
      </trkpt>
      <trkpt lat="44.9666447" lon="6.8899398">
        <ele>1868.46</ele>
        <time>2011-01-30T14:41:10Z</time>
      </trkpt>
      <trkpt lat="44.9667186" lon="6.8899839">
        <ele>1867.98</ele>
        <time>2011-01-30T14:41:11Z</time>
      </trkpt>
      <trkpt lat="44.9668575" lon="6.89009">
        <ele>1867.02</ele>
        <time>2011-01-30T14:41:13Z</time>
      </trkpt>
      <trkpt lat="44.9671429" lon="6.8902309">
        <ele>1866.06</ele>
        <time>2011-01-30T14:41:17Z</time>
      </trkpt>
      <trkpt lat="44.9674476" lon="6.8904143">
        <ele>1862.69</ele>
        <time>2011-01-30T14:41:22Z</time>
      </trkpt>
      <trkpt lat="44.9675084" lon="6.8904312">
        <ele>1861.73</ele>
        <time>2011-01-30T14:41:23Z</time>
      </trkpt>
      <trkpt lat="44.9678964" lon="6.8905122">
        <ele>1856.92</ele>
        <time>2011-01-30T14:41:30Z</time>
      </trkpt>
      <trkpt lat="44.9679922" lon="6.8905541">
        <ele>1857.4</ele>
        <time>2011-01-30T14:41:33Z</time>
      </trkpt>
      <trkpt lat="44.9680582" lon="6.8905192">
        <ele>1858.37</ele>
        <time>2011-01-30T14:41:37Z</time>
      </trkpt>
      <trkpt lat="44.9680323" lon="6.8904641">
        <ele>1860.77</ele>
        <time>2011-01-30T14:41:45Z</time>
      </trkpt>
      <trkpt lat="44.9680225" lon="6.890452">
        <ele>1861.25</ele>
        <time>2011-01-30T14:41:49Z</time>
      </trkpt>
      <trkpt lat="44.9676443" lon="6.8901837">
        <ele>1856.92</ele>
        <time>2011-01-30T14:43:44Z</time>
      </trkpt>
      <trkpt lat="44.967418" lon="6.8901449">
        <ele>1866.54</ele>
        <time>2011-01-30T14:43:50Z</time>
      </trkpt>
      <trkpt lat="44.9670885" lon="6.8901039">
        <ele>1874.23</ele>
        <time>2011-01-30T14:43:58Z</time>
      </trkpt>
      <trkpt lat="44.9667656" lon="6.8900561">
        <ele>1880.96</ele>
        <time>2011-01-30T14:44:06Z</time>
      </trkpt>
      <trkpt lat="44.9664832" lon="6.8900084">
        <ele>1883.84</ele>
        <time>2011-01-30T14:44:13Z</time>
      </trkpt>
      <trkpt lat="44.966082" lon="6.8899418">
        <ele>1886.24</ele>
        <time>2011-01-30T14:44:23Z</time>
      </trkpt>
      <trkpt lat="44.965682" lon="6.889876">
        <ele>1892.01</ele>
        <time>2011-01-30T14:44:33Z</time>
      </trkpt>
      <trkpt lat="44.9653268" lon="6.88982">
        <ele>1898.26</ele>
        <time>2011-01-30T14:44:42Z</time>
      </trkpt>
      <trkpt lat="44.9648906" lon="6.8897525">
        <ele>1899.22</ele>
        <time>2011-01-30T14:44:53Z</time>
      </trkpt>
      <trkpt lat="44.9644956" lon="6.8896879">
        <ele>1903.55</ele>
        <time>2011-01-30T14:45:03Z</time>
      </trkpt>
      <trkpt lat="44.9640571" lon="6.8896201">
        <ele>1910.76</ele>
        <time>2011-01-30T14:45:14Z</time>
      </trkpt>
      <trkpt lat="44.963536" lon="6.8895357">
        <ele>1915.08</ele>
        <time>2011-01-30T14:45:27Z</time>
      </trkpt>
      <trkpt lat="44.9629417" lon="6.8894402">
        <ele>1925.18</ele>
        <time>2011-01-30T14:45:42Z</time>
      </trkpt>
      <trkpt lat="44.9625415" lon="6.8893766">
        <ele>1927.58</ele>
        <time>2011-01-30T14:45:52Z</time>
      </trkpt>
      <trkpt lat="44.9621042" lon="6.8893073">
        <ele>1933.35</ele>
        <time>2011-01-30T14:46:03Z</time>
      </trkpt>
      <trkpt lat="44.961586" lon="6.8892274">
        <ele>1938.64</ele>
        <time>2011-01-30T14:46:16Z</time>
      </trkpt>
      <trkpt lat="44.9612313" lon="6.889172">
        <ele>1941.52</ele>
        <time>2011-01-30T14:46:25Z</time>
      </trkpt>
      <trkpt lat="44.9609589" lon="6.8891284">
        <ele>1945.36</ele>
        <time>2011-01-30T14:46:32Z</time>
      </trkpt>
      <trkpt lat="44.9605262" lon="6.889062">
        <ele>1953.54</ele>
        <time>2011-01-30T14:46:43Z</time>
      </trkpt>
      <trkpt lat="44.9601754" lon="6.8890084">
        <ele>1962.67</ele>
        <time>2011-01-30T14:46:52Z</time>
      </trkpt>
      <trkpt lat="44.9599067" lon="6.8889646">
        <ele>1970.84</ele>
        <time>2011-01-30T14:46:59Z</time>
      </trkpt>
      <trkpt lat="44.9594111" lon="6.888882">
        <ele>1987.66</ele>
        <time>2011-01-30T14:47:12Z</time>
      </trkpt>
      <trkpt lat="44.9589304" lon="6.8888057">
        <ele>2009.29</ele>
        <time>2011-01-30T14:47:25Z</time>
      </trkpt>
      <trkpt lat="44.9585969" lon="6.8887529">
        <ele>2023.71</ele>
        <time>2011-01-30T14:47:34Z</time>
      </trkpt>
      <trkpt lat="44.9582523" lon="6.8887001">
        <ele>2035.73</ele>
        <time>2011-01-30T14:47:43Z</time>
      </trkpt>
      <trkpt lat="44.9578374" lon="6.8886385">
        <ele>2053.03</ele>
        <time>2011-01-30T14:47:54Z</time>
      </trkpt>
      <trkpt lat="44.9574913" lon="6.888584">
        <ele>2065.53</ele>
        <time>2011-01-30T14:48:03Z</time>
      </trkpt>
      <trkpt lat="44.9569956" lon="6.8885064">
        <ele>2082.83</ele>
        <time>2011-01-30T14:48:16Z</time>
      </trkpt>
      <trkpt lat="44.9566411" lon="6.8884531">
        <ele>2089.56</ele>
        <time>2011-01-30T14:48:25Z</time>
      </trkpt>
      <trkpt lat="44.9562132" lon="6.8883856">
        <ele>2100.14</ele>
        <time>2011-01-30T14:48:36Z</time>
      </trkpt>
      <trkpt lat="44.9558643" lon="6.8883285">
        <ele>2107.83</ele>
        <time>2011-01-30T14:48:45Z</time>
      </trkpt>
      <trkpt lat="44.9553944" lon="6.8882541">
        <ele>2117.92</ele>
        <time>2011-01-30T14:48:57Z</time>
      </trkpt>
      <trkpt lat="44.955" lon="6.8881905">
        <ele>2125.13</ele>
        <time>2011-01-30T14:49:07Z</time>
      </trkpt>
      <trkpt lat="44.9546101" lon="6.8881277">
        <ele>2129.46</ele>
        <time>2011-01-30T14:49:17Z</time>
      </trkpt>
      <trkpt lat="44.9544414" lon="6.8880858">
        <ele>2130.42</ele>
        <time>2011-01-30T14:49:22Z</time>
      </trkpt>
      <trkpt lat="44.954348" lon="6.8880749">
        <ele>2130.42</ele>
        <time>2011-01-30T14:49:26Z</time>
      </trkpt>
      <trkpt lat="44.9543079" lon="6.888067">
        <ele>2130.42</ele>
        <time>2011-01-30T14:49:29Z</time>
      </trkpt>
      <trkpt lat="44.9543046" lon="6.8880649">
        <ele>2129.94</ele>
        <time>2011-01-30T14:49:30Z</time>
      </trkpt>
      <trkpt lat="44.9541872" lon="6.8875942">
        <ele>2125.61</ele>
        <time>2011-01-30T14:53:05Z</time>
      </trkpt>
      <trkpt lat="44.9541173" lon="6.8874284">
        <ele>2123.21</ele>
        <time>2011-01-30T14:53:08Z</time>
      </trkpt>
      <trkpt lat="44.954102" lon="6.8872067">
        <ele>2119.36</ele>
        <time>2011-01-30T14:53:12Z</time>
      </trkpt>
      <trkpt lat="44.9540686" lon="6.8871249">
        <ele>2117.92</ele>
        <time>2011-01-30T14:53:15Z</time>
      </trkpt>
      <trkpt lat="44.9540487" lon="6.886958">
        <ele>2115.52</ele>
        <time>2011-01-30T14:53:19Z</time>
      </trkpt>
      <trkpt lat="44.9540678" lon="6.8868487">
        <ele>2114.08</ele>
        <time>2011-01-30T14:53:21Z</time>
      </trkpt>
      <trkpt lat="44.954074" lon="6.8867247">
        <ele>2112.15</ele>
        <time>2011-01-30T14:53:23Z</time>
      </trkpt>
      <trkpt lat="44.9540883" lon="6.8865899">
        <ele>2109.75</ele>
        <time>2011-01-30T14:53:25Z</time>
      </trkpt>
      <trkpt lat="44.9541028" lon="6.8863086">
        <ele>2105.42</ele>
        <time>2011-01-30T14:53:28Z</time>
      </trkpt>
      <trkpt lat="44.9541008" lon="6.8860951">
        <ele>2102.54</ele>
        <time>2011-01-30T14:53:30Z</time>
      </trkpt>
      <trkpt lat="44.9540921" lon="6.8857636">
        <ele>2098.7</ele>
        <time>2011-01-30T14:53:34Z</time>
      </trkpt>
      <trkpt lat="44.954148" lon="6.8855176">
        <ele>2095.33</ele>
        <time>2011-01-30T14:53:37Z</time>
      </trkpt>
      <trkpt lat="44.9540901" lon="6.8852249">
        <ele>2093.41</ele>
        <time>2011-01-30T14:53:41Z</time>
      </trkpt>
      <trkpt lat="44.9541212" lon="6.8850654">
        <ele>2091.49</ele>
        <time>2011-01-30T14:53:44Z</time>
      </trkpt>
      <trkpt lat="44.954109" lon="6.8847757">
        <ele>2087.64</ele>
        <time>2011-01-30T14:53:50Z</time>
      </trkpt>
      <trkpt lat="44.9541114" lon="6.8847585">
        <ele>2086.68</ele>
        <time>2011-01-30T14:53:53Z</time>
      </trkpt>
      <trkpt lat="44.9542288" lon="6.8847524">
        <ele>2084.28</ele>
        <time>2011-01-30T14:53:57Z</time>
      </trkpt>
      <trkpt lat="44.9543176" lon="6.8845825">
        <ele>2081.87</ele>
        <time>2011-01-30T14:54:00Z</time>
      </trkpt>
      <trkpt lat="44.9543017" lon="6.8844271">
        <ele>2080.91</ele>
        <time>2011-01-30T14:54:02Z</time>
      </trkpt>
      <trkpt lat="44.9542735" lon="6.8842514">
        <ele>2079.47</ele>
        <time>2011-01-30T14:54:05Z</time>
      </trkpt>
      <trkpt lat="44.9542506" lon="6.8837534">
        <ele>2075.62</ele>
        <time>2011-01-30T14:54:13Z</time>
      </trkpt>
      <trkpt lat="44.954243" lon="6.8836376">
        <ele>2075.14</ele>
        <time>2011-01-30T14:54:15Z</time>
      </trkpt>
      <trkpt lat="44.9542484" lon="6.8834202">
        <ele>2072.74</ele>
        <time>2011-01-30T14:54:20Z</time>
      </trkpt>
      <trkpt lat="44.9543133" lon="6.8833108">
        <ele>2070.34</ele>
        <time>2011-01-30T14:54:22Z</time>
      </trkpt>
      <trkpt lat="44.9544546" lon="6.8830575">
        <ele>2066.01</ele>
        <time>2011-01-30T14:54:26Z</time>
      </trkpt>
      <trkpt lat="44.9544506" lon="6.8829638">
        <ele>2065.53</ele>
        <time>2011-01-30T14:54:27Z</time>
      </trkpt>
      <trkpt lat="44.9544076" lon="6.8823861">
        <ele>2058.8</ele>
        <time>2011-01-30T14:54:33Z</time>
      </trkpt>
      <trkpt lat="44.9542404" lon="6.8818702">
        <ele>2054.47</ele>
        <time>2011-01-30T14:54:39Z</time>
      </trkpt>
      <trkpt lat="44.9540774" lon="6.881391">
        <ele>2051.59</ele>
        <time>2011-01-30T14:54:45Z</time>
      </trkpt>
      <trkpt lat="44.9540583" lon="6.8813324">
        <ele>2051.59</ele>
        <time>2011-01-30T14:54:46Z</time>
      </trkpt>
      <trkpt lat="44.9539823" lon="6.8811841">
        <ele>2051.11</ele>
        <time>2011-01-30T14:54:51Z</time>
      </trkpt>
      <trkpt lat="44.9539819" lon="6.8811801">
        <ele>2050.63</ele>
        <time>2011-01-30T14:54:53Z</time>
      </trkpt>
      <trkpt lat="44.9541661" lon="6.8811906">
        <ele>2046.78</ele>
        <time>2011-01-30T14:55:06Z</time>
      </trkpt>
      <trkpt lat="44.9544027" lon="6.8811279">
        <ele>2041.98</ele>
        <time>2011-01-30T14:55:10Z</time>
      </trkpt>
      <trkpt lat="44.9545246" lon="6.8810933">
        <ele>2039.57</ele>
        <time>2011-01-30T14:55:12Z</time>
      </trkpt>
      <trkpt lat="44.954876" lon="6.880887">
        <ele>2033.81</ele>
        <time>2011-01-30T14:55:18Z</time>
      </trkpt>
      <trkpt lat="44.955097" lon="6.8807172">
        <ele>2030.44</ele>
        <time>2011-01-30T14:55:22Z</time>
      </trkpt>
      <trkpt lat="44.955235" lon="6.8805187">
        <ele>2028.04</ele>
        <time>2011-01-30T14:55:26Z</time>
      </trkpt>
      <trkpt lat="44.9552181" lon="6.8803011">
        <ele>2027.08</ele>
        <time>2011-01-30T14:55:29Z</time>
      </trkpt>
      <trkpt lat="44.9551788" lon="6.8801675">
        <ele>2026.6</ele>
        <time>2011-01-30T14:55:31Z</time>
      </trkpt>
      <trkpt lat="44.9549687" lon="6.8796313">
        <ele>2023.71</ele>
        <time>2011-01-30T14:55:40Z</time>
      </trkpt>
      <trkpt lat="44.9547666" lon="6.8792302">
        <ele>2021.79</ele>
        <time>2011-01-30T14:55:47Z</time>
      </trkpt>
      <trkpt lat="44.9545923" lon="6.8787942">
        <ele>2020.83</ele>
        <time>2011-01-30T14:55:54Z</time>
      </trkpt>
      <trkpt lat="44.95453" lon="6.8786215">
        <ele>2021.31</ele>
        <time>2011-01-30T14:55:59Z</time>
      </trkpt>
      <trkpt lat="44.9545185" lon="6.8785912">
        <ele>2021.31</ele>
        <time>2011-01-30T14:56:00Z</time>
      </trkpt>
      <trkpt lat="44.9544631" lon="6.8783788">
        <ele>2021.31</ele>
        <time>2011-01-30T14:56:06Z</time>
      </trkpt>
      <trkpt lat="44.9544066" lon="6.8782316">
        <ele>2020.83</ele>
        <time>2011-01-30T14:56:11Z</time>
      </trkpt>
      <trkpt lat="44.9543186" lon="6.8780312">
        <ele>2020.83</ele>
        <time>2011-01-30T14:56:19Z</time>
      </trkpt>
      <trkpt lat="44.9542502" lon="6.8778391">
        <ele>2019.87</ele>
        <time>2011-01-30T14:56:26Z</time>
      </trkpt>
      <trkpt lat="44.9541662" lon="6.8774861">
        <ele>2017.94</ele>
        <time>2011-01-30T14:56:33Z</time>
      </trkpt>
      <trkpt lat="44.9540792" lon="6.8769864">
        <ele>2015.54</ele>
        <time>2011-01-30T14:56:40Z</time>
      </trkpt>
      <trkpt lat="44.9540398" lon="6.8767617">
        <ele>2014.58</ele>
        <time>2011-01-30T14:56:43Z</time>
      </trkpt>
      <trkpt lat="44.9540113" lon="6.8764998">
        <ele>2013.14</ele>
        <time>2011-01-30T14:56:47Z</time>
      </trkpt>
      <trkpt lat="44.9540107" lon="6.876433">
        <ele>2012.66</ele>
        <time>2011-01-30T14:56:48Z</time>
      </trkpt>
      <trkpt lat="44.9539783" lon="6.8758772">
        <ele>2009.77</ele>
        <time>2011-01-30T14:56:55Z</time>
      </trkpt>
      <trkpt lat="44.953969" lon="6.8755098">
        <ele>2007.37</ele>
        <time>2011-01-30T14:56:59Z</time>
      </trkpt>
      <trkpt lat="44.9540051" lon="6.875136">
        <ele>2003.52</ele>
        <time>2011-01-30T14:57:03Z</time>
      </trkpt>
      <trkpt lat="44.9540047" lon="6.8749473">
        <ele>2001.6</ele>
        <time>2011-01-30T14:57:05Z</time>
      </trkpt>
      <trkpt lat="44.9538752" lon="6.8746486">
        <ele>1999.68</ele>
        <time>2011-01-30T14:57:09Z</time>
      </trkpt>
      <trkpt lat="44.953827" lon="6.8746112">
        <ele>1999.2</ele>
        <time>2011-01-30T14:57:10Z</time>
      </trkpt>
      <trkpt lat="44.9536395" lon="6.8744953">
        <ele>1998.24</ele>
        <time>2011-01-30T14:57:15Z</time>
      </trkpt>
      <trkpt lat="44.9536274" lon="6.8743239">
        <ele>1997.28</ele>
        <time>2011-01-30T14:57:20Z</time>
      </trkpt>
      <trkpt lat="44.9536851" lon="6.8743115">
        <ele>1996.8</ele>
        <time>2011-01-30T14:57:23Z</time>
      </trkpt>
      <trkpt lat="44.9537544" lon="6.8743356">
        <ele>1996.8</ele>
        <time>2011-01-30T14:57:30Z</time>
      </trkpt>
      <trkpt lat="44.9537544" lon="6.8743369">
        <ele>1996.8</ele>
        <time>2011-01-30T14:57:31Z</time>
      </trkpt>
      <trkpt lat="44.9540976" lon="6.8739">
        <ele>1998.24</ele>
        <time>2011-01-30T14:58:40Z</time>
      </trkpt>
      <trkpt lat="44.9543216" lon="6.873679">
        <ele>1998.72</ele>
        <time>2011-01-30T14:58:45Z</time>
      </trkpt>
      <trkpt lat="44.954634" lon="6.8733728">
        <ele>2002.08</ele>
        <time>2011-01-30T14:58:52Z</time>
      </trkpt>
      <trkpt lat="44.9549482" lon="6.8730798">
        <ele>2007.37</ele>
        <time>2011-01-30T14:58:59Z</time>
      </trkpt>
      <trkpt lat="44.9552564" lon="6.8727729">
        <ele>2011.22</ele>
        <time>2011-01-30T14:59:06Z</time>
      </trkpt>
      <trkpt lat="44.9556083" lon="6.8724206">
        <ele>2016.02</ele>
        <time>2011-01-30T14:59:14Z</time>
      </trkpt>
      <trkpt lat="44.9559155" lon="6.8721165">
        <ele>2021.79</ele>
        <time>2011-01-30T14:59:21Z</time>
      </trkpt>
      <trkpt lat="44.956303" lon="6.8717294">
        <ele>2031.88</ele>
        <time>2011-01-30T14:59:30Z</time>
      </trkpt>
      <trkpt lat="44.9566438" lon="6.8713888">
        <ele>2043.9</ele>
        <time>2011-01-30T14:59:38Z</time>
      </trkpt>
      <trkpt lat="44.9571546" lon="6.870889">
        <ele>2059.28</ele>
        <time>2011-01-30T14:59:50Z</time>
      </trkpt>
      <trkpt lat="44.9574955" lon="6.8705575">
        <ele>2076.1</ele>
        <time>2011-01-30T14:59:58Z</time>
      </trkpt>
      <trkpt lat="44.9578675" lon="6.8702029">
        <ele>2094.37</ele>
        <time>2011-01-30T15:00:07Z</time>
      </trkpt>
      <trkpt lat="44.9581678" lon="6.8699172">
        <ele>2107.35</ele>
        <time>2011-01-30T15:00:14Z</time>
      </trkpt>
      <trkpt lat="44.958506" lon="6.8695872">
        <ele>2120.32</ele>
        <time>2011-01-30T15:00:22Z</time>
      </trkpt>
      <trkpt lat="44.9588417" lon="6.8692514">
        <ele>2135.23</ele>
        <time>2011-01-30T15:00:30Z</time>
      </trkpt>
      <trkpt lat="44.9591743" lon="6.8689246">
        <ele>2152.05</ele>
        <time>2011-01-30T15:00:38Z</time>
      </trkpt>
      <trkpt lat="44.9594392" lon="6.8686708">
        <ele>2161.18</ele>
        <time>2011-01-30T15:00:44Z</time>
      </trkpt>
      <trkpt lat="44.959738" lon="6.8683672">
        <ele>2169.35</ele>
        <time>2011-01-30T15:00:51Z</time>
      </trkpt>
      <trkpt lat="44.9601192" lon="6.8679853">
        <ele>2182.33</ele>
        <time>2011-01-30T15:01:00Z</time>
      </trkpt>
      <trkpt lat="44.9604291" lon="6.8676928">
        <ele>2189.54</ele>
        <time>2011-01-30T15:01:07Z</time>
      </trkpt>
      <trkpt lat="44.9608207" lon="6.8673009">
        <ele>2196.27</ele>
        <time>2011-01-30T15:01:16Z</time>
      </trkpt>
      <trkpt lat="44.9611676" lon="6.8669617">
        <ele>2203.48</ele>
        <time>2011-01-30T15:01:24Z</time>
      </trkpt>
      <trkpt lat="44.961466" lon="6.8666722">
        <ele>2209.25</ele>
        <time>2011-01-30T15:01:31Z</time>
      </trkpt>
      <trkpt lat="44.9619115" lon="6.866219">
        <ele>2210.21</ele>
        <time>2011-01-30T15:01:41Z</time>
      </trkpt>
      <trkpt lat="44.9622633" lon="6.8658635">
        <ele>2211.17</ele>
        <time>2011-01-30T15:01:49Z</time>
      </trkpt>
      <trkpt lat="44.9626518" lon="6.8654771">
        <ele>2219.82</ele>
        <time>2011-01-30T15:01:58Z</time>
      </trkpt>
      <trkpt lat="44.9630748" lon="6.8650499">
        <ele>2234.72</ele>
        <time>2011-01-30T15:02:08Z</time>
      </trkpt>
      <trkpt lat="44.9634143" lon="6.8647152">
        <ele>2249.62</ele>
        <time>2011-01-30T15:02:16Z</time>
      </trkpt>
      <trkpt lat="44.9637965" lon="6.8643405">
        <ele>2265.96</ele>
        <time>2011-01-30T15:02:25Z</time>
      </trkpt>
      <trkpt lat="44.9641838" lon="6.8639496">
        <ele>2278.94</ele>
        <time>2011-01-30T15:02:34Z</time>
      </trkpt>
      <trkpt lat="44.9645782" lon="6.8635795">
        <ele>2292.88</ele>
        <time>2011-01-30T15:02:43Z</time>
      </trkpt>
      <trkpt lat="44.9649999" lon="6.8631659">
        <ele>2307.3</ele>
        <time>2011-01-30T15:02:53Z</time>
      </trkpt>
      <trkpt lat="44.965177" lon="6.8629849">
        <ele>2308.74</ele>
        <time>2011-01-30T15:02:57Z</time>
      </trkpt>
      <trkpt lat="44.9653035" lon="6.8628741">
        <ele>2311.63</ele>
        <time>2011-01-30T15:03:01Z</time>
      </trkpt>
      <trkpt lat="44.9653137" lon="6.862869">
        <ele>2311.15</ele>
        <time>2011-01-30T15:03:04Z</time>
      </trkpt>
      <trkpt lat="44.9656826" lon="6.8627157">
        <ele>2298.65</ele>
        <time>2011-01-30T15:04:01Z</time>
      </trkpt>
      <trkpt lat="44.9659717" lon="6.8626681">
        <ele>2304.42</ele>
        <time>2011-01-30T15:04:07Z</time>
      </trkpt>
      <trkpt lat="44.9663652" lon="6.8625685">
        <ele>2326.05</ele>
        <time>2011-01-30T15:04:15Z</time>
      </trkpt>
      <trkpt lat="44.9667394" lon="6.8624649">
        <ele>2352.96</ele>
        <time>2011-01-30T15:04:23Z</time>
      </trkpt>
      <trkpt lat="44.9670394" lon="6.862376">
        <ele>2366.42</ele>
        <time>2011-01-30T15:04:29Z</time>
      </trkpt>
      <trkpt lat="44.9676443" lon="6.8622161">
        <ele>2396.22</ele>
        <time>2011-01-30T15:04:41Z</time>
      </trkpt>
      <trkpt lat="44.9681393" lon="6.8620999">
        <ele>2415.93</ele>
        <time>2011-01-30T15:04:51Z</time>
      </trkpt>
      <trkpt lat="44.9684672" lon="6.8620243">
        <ele>2432.27</ele>
        <time>2011-01-30T15:04:58Z</time>
      </trkpt>
      <trkpt lat="44.9687208" lon="6.8619474">
        <ele>2441.89</ele>
        <time>2011-01-30T15:05:03Z</time>
      </trkpt>
      <trkpt lat="44.9692102" lon="6.8618106">
        <ele>2461.59</ele>
        <time>2011-01-30T15:05:13Z</time>
      </trkpt>
      <trkpt lat="44.969706" lon="6.8616741">
        <ele>2484.18</ele>
        <time>2011-01-30T15:05:23Z</time>
      </trkpt>
      <trkpt lat="44.9701458" lon="6.8615523">
        <ele>2503.89</ele>
        <time>2011-01-30T15:05:32Z</time>
      </trkpt>
      <trkpt lat="44.9705064" lon="6.8614585">
        <ele>2513.5</ele>
        <time>2011-01-30T15:05:39Z</time>
      </trkpt>
      <trkpt lat="44.9712833" lon="6.861256">
        <ele>2532.73</ele>
        <time>2011-01-30T15:05:54Z</time>
      </trkpt>
      <trkpt lat="44.9717915" lon="6.8611209">
        <ele>2548.11</ele>
        <time>2011-01-30T15:06:04Z</time>
      </trkpt>
      <trkpt lat="44.9723463" lon="6.8609714">
        <ele>2565.9</ele>
        <time>2011-01-30T15:06:15Z</time>
      </trkpt>
      <trkpt lat="44.9727544" lon="6.8608602">
        <ele>2578.39</ele>
        <time>2011-01-30T15:06:23Z</time>
      </trkpt>
      <trkpt lat="44.9732117" lon="6.8607326">
        <ele>2593.77</ele>
        <time>2011-01-30T15:06:32Z</time>
      </trkpt>
      <trkpt lat="44.9737711" lon="6.8605819">
        <ele>2615.88</ele>
        <time>2011-01-30T15:06:43Z</time>
      </trkpt>
      <trkpt lat="44.9739174" lon="6.8605433">
        <ele>2622.61</ele>
        <time>2011-01-30T15:06:47Z</time>
      </trkpt>
      <trkpt lat="44.973931" lon="6.8605404">
        <ele>2623.58</ele>
        <time>2011-01-30T15:06:48Z</time>
      </trkpt>
      <trkpt lat="44.9739437" lon="6.8605354">
        <ele>2625.5</ele>
        <time>2011-01-30T15:06:50Z</time>
      </trkpt>
      <trkpt lat="44.9739366" lon="6.8605312">
        <ele>2626.94</ele>
        <time>2011-01-30T15:06:53Z</time>
      </trkpt>
      <trkpt lat="44.9741556" lon="6.8604903">
        <ele>2636.55</ele>
        <time>2011-01-30T15:07:34Z</time>
      </trkpt>
      <trkpt lat="44.9744036" lon="6.8604255">
        <ele>2642.8</ele>
        <time>2011-01-30T15:07:41Z</time>
      </trkpt>
      <trkpt lat="44.974736" lon="6.8603321">
        <ele>2651.93</ele>
        <time>2011-01-30T15:07:48Z</time>
      </trkpt>
      <trkpt lat="44.9751943" lon="6.8601956">
        <ele>2665.39</ele>
        <time>2011-01-30T15:07:57Z</time>
      </trkpt>
      <trkpt lat="44.9757481" lon="6.8600412">
        <ele>2685.58</ele>
        <time>2011-01-30T15:08:08Z</time>
      </trkpt>
      <trkpt lat="44.9761612" lon="6.8599371">
        <ele>2697.6</ele>
        <time>2011-01-30T15:08:16Z</time>
      </trkpt>
      <trkpt lat="44.9764637" lon="6.8598409">
        <ele>2700.96</ele>
        <time>2011-01-30T15:08:22Z</time>
      </trkpt>
      <trkpt lat="44.9765075" lon="6.8598098">
        <ele>2701.92</ele>
        <time>2011-01-30T15:08:25Z</time>
      </trkpt>
      <trkpt lat="44.9765179" lon="6.8597683">
        <ele>2702.88</ele>
        <time>2011-01-30T15:08:32Z</time>
      </trkpt>
      <trkpt lat="44.9765252" lon="6.8597618">
        <ele>2702.88</ele>
        <time>2011-01-30T15:08:35Z</time>
      </trkpt>
      <trkpt lat="44.9768347" lon="6.8601021">
        <ele>2698.08</ele>
        <time>2011-01-30T15:10:28Z</time>
      </trkpt>
      <trkpt lat="44.9768602" lon="6.8601291">
        <ele>2698.08</ele>
        <time>2011-01-30T15:10:32Z</time>
      </trkpt>
      <trkpt lat="44.9768696" lon="6.8601407">
        <ele>2698.08</ele>
        <time>2011-01-30T15:10:35Z</time>
      </trkpt>
      <trkpt lat="44.9766883" lon="6.8596444">
        <ele>2700</ele>
        <time>2011-01-30T15:12:00Z</time>
      </trkpt>
      <trkpt lat="44.9766886" lon="6.8596442">
        <ele>2700</ele>
        <time>2011-01-30T15:12:01Z</time>
      </trkpt>
      <trkpt lat="44.9767082" lon="6.8598247">
        <ele>2701.92</ele>
        <time>2011-01-30T15:14:22Z</time>
      </trkpt>
      <trkpt lat="44.9767155" lon="6.8598585">
        <ele>2701.92</ele>
        <time>2011-01-30T15:14:24Z</time>
      </trkpt>
      <trkpt lat="44.9767766" lon="6.8600188">
        <ele>2700.48</ele>
        <time>2011-01-30T15:14:32Z</time>
      </trkpt>
      <trkpt lat="44.97684" lon="6.8601104">
        <ele>2699.04</ele>
        <time>2011-01-30T15:14:37Z</time>
      </trkpt>
      <trkpt lat="44.976918" lon="6.8602184">
        <ele>2698.08</ele>
        <time>2011-01-30T15:14:44Z</time>
      </trkpt>
      <trkpt lat="44.9770187" lon="6.8603682">
        <ele>2696.15</ele>
        <time>2011-01-30T15:14:49Z</time>
      </trkpt>
      <trkpt lat="44.9771079" lon="6.8604923">
        <ele>2694.71</ele>
        <time>2011-01-30T15:14:53Z</time>
      </trkpt>
      <trkpt lat="44.9771343" lon="6.8605134">
        <ele>2694.71</ele>
        <time>2011-01-30T15:14:54Z</time>
      </trkpt>
      <trkpt lat="44.9772855" lon="6.8606577">
        <ele>2691.35</ele>
        <time>2011-01-30T15:14:59Z</time>
      </trkpt>
      <trkpt lat="44.977404" lon="6.860755">
        <ele>2688.46</ele>
        <time>2011-01-30T15:15:02Z</time>
      </trkpt>
      <trkpt lat="44.9775317" lon="6.8608535">
        <ele>2685.58</ele>
        <time>2011-01-30T15:15:05Z</time>
      </trkpt>
      <trkpt lat="44.9776552" lon="6.8609539">
        <ele>2681.73</ele>
        <time>2011-01-30T15:15:08Z</time>
      </trkpt>
      <trkpt lat="44.9777652" lon="6.8609798">
        <ele>2679.33</ele>
        <time>2011-01-30T15:15:10Z</time>
      </trkpt>
      <trkpt lat="44.9778424" lon="6.8610576">
        <ele>2675.97</ele>
        <time>2011-01-30T15:15:12Z</time>
      </trkpt>
      <trkpt lat="44.9779484" lon="6.8610871">
        <ele>2672.6</ele>
        <time>2011-01-30T15:15:14Z</time>
      </trkpt>
      <trkpt lat="44.9781335" lon="6.8611523">
        <ele>2666.35</ele>
        <time>2011-01-30T15:15:17Z</time>
      </trkpt>
      <trkpt lat="44.9782996" lon="6.8612606">
        <ele>2660.59</ele>
        <time>2011-01-30T15:15:20Z</time>
      </trkpt>
      <trkpt lat="44.978391" lon="6.8613503">
        <ele>2656.74</ele>
        <time>2011-01-30T15:15:22Z</time>
      </trkpt>
      <trkpt lat="44.9785588" lon="6.8614099">
        <ele>2651.45</ele>
        <time>2011-01-30T15:15:25Z</time>
      </trkpt>
      <trkpt lat="44.9786883" lon="6.8614493">
        <ele>2645.69</ele>
        <time>2011-01-30T15:15:28Z</time>
      </trkpt>
      <trkpt lat="44.9787681" lon="6.8615282">
        <ele>2641.84</ele>
        <time>2011-01-30T15:15:30Z</time>
      </trkpt>
      <trkpt lat="44.9788526" lon="6.8615479">
        <ele>2638.48</ele>
        <time>2011-01-30T15:15:32Z</time>
      </trkpt>
      <trkpt lat="44.9789344" lon="6.8615521">
        <ele>2635.11</ele>
        <time>2011-01-30T15:15:34Z</time>
      </trkpt>
      <trkpt lat="44.9790546" lon="6.861618">
        <ele>2629.34</ele>
        <time>2011-01-30T15:15:37Z</time>
      </trkpt>
      <trkpt lat="44.9791399" lon="6.8616408">
        <ele>2625.5</ele>
        <time>2011-01-30T15:15:39Z</time>
      </trkpt>
      <trkpt lat="44.9792362" lon="6.8616637">
        <ele>2622.13</ele>
        <time>2011-01-30T15:15:41Z</time>
      </trkpt>
      <trkpt lat="44.9793731" lon="6.8617082">
        <ele>2617.33</ele>
        <time>2011-01-30T15:15:44Z</time>
      </trkpt>
      <trkpt lat="44.9794736" lon="6.86176">
        <ele>2613</ele>
        <time>2011-01-30T15:15:46Z</time>
      </trkpt>
      <trkpt lat="44.9795685" lon="6.8617698">
        <ele>2609.16</ele>
        <time>2011-01-30T15:15:48Z</time>
      </trkpt>
      <trkpt lat="44.9796744" lon="6.8618072">
        <ele>2604.83</ele>
        <time>2011-01-30T15:15:50Z</time>
      </trkpt>
      <trkpt lat="44.9797196" lon="6.8619323">
        <ele>2600.98</ele>
        <time>2011-01-30T15:15:52Z</time>
      </trkpt>
      <trkpt lat="44.9797994" lon="6.862044">
        <ele>2597.14</ele>
        <time>2011-01-30T15:15:54Z</time>
      </trkpt>
      <trkpt lat="44.9799558" lon="6.8620711">
        <ele>2592.33</ele>
        <time>2011-01-30T15:15:57Z</time>
      </trkpt>
      <trkpt lat="44.9799858" lon="6.862296">
        <ele>2588.49</ele>
        <time>2011-01-30T15:16:00Z</time>
      </trkpt>
      <trkpt lat="44.9800782" lon="6.8623719">
        <ele>2586.08</ele>
        <time>2011-01-30T15:16:02Z</time>
      </trkpt>
      <trkpt lat="44.9802087" lon="6.8624723">
        <ele>2579.84</ele>
        <time>2011-01-30T15:16:05Z</time>
      </trkpt>
      <trkpt lat="44.9803177" lon="6.8625297">
        <ele>2575.99</ele>
        <time>2011-01-30T15:16:07Z</time>
      </trkpt>
      <trkpt lat="44.9804771" lon="6.8626285">
        <ele>2570.7</ele>
        <time>2011-01-30T15:16:10Z</time>
      </trkpt>
      <trkpt lat="44.9805734" lon="6.8626827">
        <ele>2568.3</ele>
        <time>2011-01-30T15:16:12Z</time>
      </trkpt>
      <trkpt lat="44.9806676" lon="6.8627623">
        <ele>2565.9</ele>
        <time>2011-01-30T15:16:14Z</time>
      </trkpt>
      <trkpt lat="44.9808549" lon="6.8629476">
        <ele>2561.57</ele>
        <time>2011-01-30T15:16:19Z</time>
      </trkpt>
      <trkpt lat="44.9809448" lon="6.8630479">
        <ele>2558.69</ele>
        <time>2011-01-30T15:16:22Z</time>
      </trkpt>
      <trkpt lat="44.980998" lon="6.863088">
        <ele>2557.24</ele>
        <time>2011-01-30T15:16:23Z</time>
      </trkpt>
      <trkpt lat="44.9811493" lon="6.8631907">
        <ele>2552.92</ele>
        <time>2011-01-30T15:16:26Z</time>
      </trkpt>
      <trkpt lat="44.9812843" lon="6.8633542">
        <ele>2548.59</ele>
        <time>2011-01-30T15:16:29Z</time>
      </trkpt>
      <trkpt lat="44.9814099" lon="6.8635072">
        <ele>2544.75</ele>
        <time>2011-01-30T15:16:32Z</time>
      </trkpt>
      <trkpt lat="44.9815789" lon="6.8636165">
        <ele>2542.82</ele>
        <time>2011-01-30T15:16:36Z</time>
      </trkpt>
      <trkpt lat="44.9816359" lon="6.8636538">
        <ele>2542.34</ele>
        <time>2011-01-30T15:16:38Z</time>
      </trkpt>
      <trkpt lat="44.9816884" lon="6.8636885">
        <ele>2542.34</ele>
        <time>2011-01-30T15:16:45Z</time>
      </trkpt>
      <trkpt lat="44.9818457" lon="6.8638268">
        <ele>2539.46</ele>
        <time>2011-01-30T15:16:51Z</time>
      </trkpt>
      <trkpt lat="44.981974" lon="6.8639635">
        <ele>2536.58</ele>
        <time>2011-01-30T15:16:54Z</time>
      </trkpt>
      <trkpt lat="44.9821332" lon="6.8641941">
        <ele>2533.21</ele>
        <time>2011-01-30T15:16:58Z</time>
      </trkpt>
      <trkpt lat="44.9822987" lon="6.864471">
        <ele>2529.37</ele>
        <time>2011-01-30T15:17:02Z</time>
      </trkpt>
      <trkpt lat="44.9824998" lon="6.8646866">
        <ele>2524.56</ele>
        <time>2011-01-30T15:17:06Z</time>
      </trkpt>
      <trkpt lat="44.9827395" lon="6.8648925">
        <ele>2519.75</ele>
        <time>2011-01-30T15:17:10Z</time>
      </trkpt>
      <trkpt lat="44.9829824" lon="6.8651225">
        <ele>2515.43</ele>
        <time>2011-01-30T15:17:15Z</time>
      </trkpt>
      <trkpt lat="44.9833644" lon="6.8655861">
        <ele>2510.14</ele>
        <time>2011-01-30T15:17:24Z</time>
      </trkpt>
      <trkpt lat="44.9835059" lon="6.8657606">
        <ele>2508.22</ele>
        <time>2011-01-30T15:17:28Z</time>
      </trkpt>
      <trkpt lat="44.9837046" lon="6.8661298">
        <ele>2505.33</ele>
        <time>2011-01-30T15:17:36Z</time>
      </trkpt>
      <trkpt lat="44.9838462" lon="6.8664583">
        <ele>2502.93</ele>
        <time>2011-01-30T15:17:43Z</time>
      </trkpt>
      <trkpt lat="44.9839526" lon="6.8668168">
        <ele>2501.01</ele>
        <time>2011-01-30T15:17:51Z</time>
      </trkpt>
      <trkpt lat="44.9840652" lon="6.8671862">
        <ele>2498.6</ele>
        <time>2011-01-30T15:17:58Z</time>
      </trkpt>
      <trkpt lat="44.9841014" lon="6.867311">
        <ele>2497.64</ele>
        <time>2011-01-30T15:18:00Z</time>
      </trkpt>
      <trkpt lat="44.9841611" lon="6.8675047">
        <ele>2495.24</ele>
        <time>2011-01-30T15:18:03Z</time>
      </trkpt>
      <trkpt lat="44.9842959" lon="6.8677244">
        <ele>2492.84</ele>
        <time>2011-01-30T15:18:07Z</time>
      </trkpt>
      <trkpt lat="44.9845542" lon="6.8680585">
        <ele>2488.03</ele>
        <time>2011-01-30T15:18:13Z</time>
      </trkpt>
      <trkpt lat="44.9848654" lon="6.8684003">
        <ele>2483.7</ele>
        <time>2011-01-30T15:18:20Z</time>
      </trkpt>
      <trkpt lat="44.9852359" lon="6.8687954">
        <ele>2479.86</ele>
        <time>2011-01-30T15:18:28Z</time>
      </trkpt>
      <trkpt lat="44.9854707" lon="6.8690758">
        <ele>2477.94</ele>
        <time>2011-01-30T15:18:34Z</time>
      </trkpt>
      <trkpt lat="44.985645" lon="6.8693434">
        <ele>2476.49</ele>
        <time>2011-01-30T15:18:39Z</time>
      </trkpt>
      <trkpt lat="44.9857945" lon="6.8694312">
        <ele>2476.01</ele>
        <time>2011-01-30T15:18:43Z</time>
      </trkpt>
      <trkpt lat="44.9858684" lon="6.8693712">
        <ele>2476.97</ele>
        <time>2011-01-30T15:18:48Z</time>
      </trkpt>
      <trkpt lat="44.9858886" lon="6.8693478">
        <ele>2477.45</ele>
        <time>2011-01-30T15:18:51Z</time>
      </trkpt>
      <trkpt lat="44.9858917" lon="6.8693406">
        <ele>2478.9</ele>
        <time>2011-01-30T15:18:54Z</time>
      </trkpt>
      <trkpt lat="44.9859591" lon="6.8692167">
        <ele>2479.38</ele>
        <time>2011-01-30T15:19:04Z</time>
      </trkpt>
      <trkpt lat="44.9860139" lon="6.869121">
        <ele>2479.86</ele>
        <time>2011-01-30T15:19:09Z</time>
      </trkpt>
      <trkpt lat="44.9860812" lon="6.8689878">
        <ele>2480.34</ele>
        <time>2011-01-30T15:19:16Z</time>
      </trkpt>
      <trkpt lat="44.9861047" lon="6.8689469">
        <ele>2480.34</ele>
        <time>2011-01-30T15:19:21Z</time>
      </trkpt>
      <trkpt lat="44.9861217" lon="6.868607">
        <ele>2483.7</ele>
        <time>2011-01-30T15:20:33Z</time>
      </trkpt>
      <trkpt lat="44.986133" lon="6.8685356">
        <ele>2483.7</ele>
        <time>2011-01-30T15:20:36Z</time>
      </trkpt>
      <trkpt lat="44.9861373" lon="6.8684463">
        <ele>2482.74</ele>
        <time>2011-01-30T15:20:39Z</time>
      </trkpt>
      <trkpt lat="44.9861822" lon="6.8683511">
        <ele>2480.82</ele>
        <time>2011-01-30T15:20:44Z</time>
      </trkpt>
      <trkpt lat="44.9861553" lon="6.8682391">
        <ele>2478.9</ele>
        <time>2011-01-30T15:20:48Z</time>
      </trkpt>
      <trkpt lat="44.9861652" lon="6.8682012">
        <ele>2478.42</ele>
        <time>2011-01-30T15:20:49Z</time>
      </trkpt>
      <trkpt lat="44.9862422" lon="6.8679578">
        <ele>2472.17</ele>
        <time>2011-01-30T15:20:54Z</time>
      </trkpt>
      <trkpt lat="44.9862101" lon="6.8678684">
        <ele>2470.24</ele>
        <time>2011-01-30T15:20:57Z</time>
      </trkpt>
      <trkpt lat="44.9862062" lon="6.8678677">
        <ele>2469.28</ele>
        <time>2011-01-30T15:21:00Z</time>
      </trkpt>
      <trkpt lat="44.9862295" lon="6.8677719">
        <ele>2465.44</ele>
        <time>2011-01-30T15:21:20Z</time>
      </trkpt>
      <trkpt lat="44.9862542" lon="6.8677622">
        <ele>2464.96</ele>
        <time>2011-01-30T15:21:22Z</time>
      </trkpt>
      <trkpt lat="44.9863056" lon="6.8677433">
        <ele>2464</ele>
        <time>2011-01-30T15:21:25Z</time>
      </trkpt>
      <trkpt lat="44.9862994" lon="6.8676213">
        <ele>2461.11</ele>
        <time>2011-01-30T15:21:29Z</time>
      </trkpt>
      <trkpt lat="44.9863246" lon="6.8675317">
        <ele>2458.71</ele>
        <time>2011-01-30T15:21:31Z</time>
      </trkpt>
      <trkpt lat="44.9863652" lon="6.8674332">
        <ele>2456.31</ele>
        <time>2011-01-30T15:21:33Z</time>
      </trkpt>
      <trkpt lat="44.9863963" lon="6.8674284">
        <ele>2455.34</ele>
        <time>2011-01-30T15:21:34Z</time>
      </trkpt>
      <trkpt lat="44.9864652" lon="6.8674369">
        <ele>2453.42</ele>
        <time>2011-01-30T15:21:37Z</time>
      </trkpt>
      <trkpt lat="44.9865185" lon="6.8673152">
        <ele>2450.54</ele>
        <time>2011-01-30T15:21:40Z</time>
      </trkpt>
      <trkpt lat="44.986582" lon="6.8671975">
        <ele>2446.69</ele>
        <time>2011-01-30T15:21:43Z</time>
      </trkpt>
      <trkpt lat="44.9866279" lon="6.86715">
        <ele>2444.77</ele>
        <time>2011-01-30T15:21:45Z</time>
      </trkpt>
      <trkpt lat="44.9866375" lon="6.8671519">
        <ele>2444.29</ele>
        <time>2011-01-30T15:21:48Z</time>
      </trkpt>
      <trkpt lat="44.9866418" lon="6.8671442">
        <ele>2443.81</ele>
        <time>2011-01-30T15:21:49Z</time>
      </trkpt>
      <trkpt lat="44.9866905" lon="6.8670283">
        <ele>2439.96</ele>
        <time>2011-01-30T15:21:53Z</time>
      </trkpt>
      <trkpt lat="44.9867559" lon="6.8669239">
        <ele>2436.12</ele>
        <time>2011-01-30T15:21:56Z</time>
      </trkpt>
      <trkpt lat="44.9869069" lon="6.8667101">
        <ele>2428.91</ele>
        <time>2011-01-30T15:22:01Z</time>
      </trkpt>
      <trkpt lat="44.9870992" lon="6.8664816">
        <ele>2419.78</ele>
        <time>2011-01-30T15:22:06Z</time>
      </trkpt>
      <trkpt lat="44.9871339" lon="6.8663423">
        <ele>2416.41</ele>
        <time>2011-01-30T15:22:08Z</time>
      </trkpt>
      <trkpt lat="44.9872059" lon="6.8661533">
        <ele>2410.16</ele>
        <time>2011-01-30T15:22:13Z</time>
      </trkpt>
      <trkpt lat="44.9872375" lon="6.8661697">
        <ele>2409.68</ele>
        <time>2011-01-30T15:22:17Z</time>
      </trkpt>
      <trkpt lat="44.9873726" lon="6.8660403">
        <ele>2406.32</ele>
        <time>2011-01-30T15:22:37Z</time>
      </trkpt>
      <trkpt lat="44.9874529" lon="6.8659477">
        <ele>2403.43</ele>
        <time>2011-01-30T15:22:39Z</time>
      </trkpt>
      <trkpt lat="44.9875595" lon="6.8657088">
        <ele>2395.74</ele>
        <time>2011-01-30T15:22:44Z</time>
      </trkpt>
      <trkpt lat="44.9875971" lon="6.8656114">
        <ele>2392.86</ele>
        <time>2011-01-30T15:22:46Z</time>
      </trkpt>
      <trkpt lat="44.9877269" lon="6.8655394">
        <ele>2387.57</ele>
        <time>2011-01-30T15:22:50Z</time>
      </trkpt>
      <trkpt lat="44.9877529" lon="6.8654321">
        <ele>2384.21</ele>
        <time>2011-01-30T15:22:52Z</time>
      </trkpt>
      <trkpt lat="44.987856" lon="6.8653787">
        <ele>2381.32</ele>
        <time>2011-01-30T15:22:54Z</time>
      </trkpt>
      <trkpt lat="44.9879359" lon="6.8652799">
        <ele>2376.04</ele>
        <time>2011-01-30T15:22:57Z</time>
      </trkpt>
      <trkpt lat="44.9880121" lon="6.865172">
        <ele>2373.63</ele>
        <time>2011-01-30T15:22:59Z</time>
      </trkpt>
      <trkpt lat="44.9881363" lon="6.8651447">
        <ele>2371.71</ele>
        <time>2011-01-30T15:23:02Z</time>
      </trkpt>
      <trkpt lat="44.9882679" lon="6.8650758">
        <ele>2368.35</ele>
        <time>2011-01-30T15:23:06Z</time>
      </trkpt>
      <trkpt lat="44.9883123" lon="6.8649056">
        <ele>2365.46</ele>
        <time>2011-01-30T15:23:08Z</time>
      </trkpt>
      <trkpt lat="44.988365" lon="6.8648492">
        <ele>2364.02</ele>
        <time>2011-01-30T15:23:09Z</time>
      </trkpt>
      <trkpt lat="44.9886057" lon="6.8646095">
        <ele>2353.93</ele>
        <time>2011-01-30T15:23:14Z</time>
      </trkpt>
      <trkpt lat="44.9886989" lon="6.8645198">
        <ele>2350.08</ele>
        <time>2011-01-30T15:23:16Z</time>
      </trkpt>
      <trkpt lat="44.9888474" lon="6.864297">
        <ele>2345.75</ele>
        <time>2011-01-30T15:23:19Z</time>
      </trkpt>
      <trkpt lat="44.9888742" lon="6.8641447">
        <ele>2343.35</ele>
        <time>2011-01-30T15:23:21Z</time>
      </trkpt>
      <trkpt lat="44.988925" lon="6.8639127">
        <ele>2341.43</ele>
        <time>2011-01-30T15:23:24Z</time>
      </trkpt>
      <trkpt lat="44.9889356" lon="6.8637707">
        <ele>2340.47</ele>
        <time>2011-01-30T15:23:26Z</time>
      </trkpt>
      <trkpt lat="44.9889905" lon="6.8635438">
        <ele>2336.62</ele>
        <time>2011-01-30T15:23:29Z</time>
      </trkpt>
      <trkpt lat="44.9890376" lon="6.8633543">
        <ele>2332.3</ele>
        <time>2011-01-30T15:23:31Z</time>
      </trkpt>
      <trkpt lat="44.9890645" lon="6.8631312">
        <ele>2328.93</ele>
        <time>2011-01-30T15:23:33Z</time>
      </trkpt>
      <trkpt lat="44.9890631" lon="6.8628904">
        <ele>2326.53</ele>
        <time>2011-01-30T15:23:35Z</time>
      </trkpt>
      <trkpt lat="44.9890758" lon="6.8624432">
        <ele>2322.68</ele>
        <time>2011-01-30T15:23:40Z</time>
      </trkpt>
      <trkpt lat="44.9891433" lon="6.86234">
        <ele>2320.76</ele>
        <time>2011-01-30T15:23:42Z</time>
      </trkpt>
      <trkpt lat="44.9892505" lon="6.8621822">
        <ele>2317.4</ele>
        <time>2011-01-30T15:23:45Z</time>
      </trkpt>
      <trkpt lat="44.9893379" lon="6.8621799">
        <ele>2315.95</ele>
        <time>2011-01-30T15:23:47Z</time>
      </trkpt>
      <trkpt lat="44.9894085" lon="6.8622413">
        <ele>2315.47</ele>
        <time>2011-01-30T15:23:49Z</time>
      </trkpt>
      <trkpt lat="44.9896623" lon="6.8623334">
        <ele>2310.19</ele>
        <time>2011-01-30T15:23:54Z</time>
      </trkpt>
      <trkpt lat="44.9898026" lon="6.8623254">
        <ele>2307.78</ele>
        <time>2011-01-30T15:23:57Z</time>
      </trkpt>
      <trkpt lat="44.9898866" lon="6.8623022">
        <ele>2306.82</ele>
        <time>2011-01-30T15:23:59Z</time>
      </trkpt>
      <trkpt lat="44.9900625" lon="6.8623071">
        <ele>2302.01</ele>
        <time>2011-01-30T15:24:03Z</time>
      </trkpt>
      <trkpt lat="44.9901596" lon="6.8620897">
        <ele>2296.73</ele>
        <time>2011-01-30T15:24:06Z</time>
      </trkpt>
      <trkpt lat="44.9901958" lon="6.861905">
        <ele>2292.4</ele>
        <time>2011-01-30T15:24:08Z</time>
      </trkpt>
      <trkpt lat="44.9902358" lon="6.8615858">
        <ele>2285.19</ele>
        <time>2011-01-30T15:24:11Z</time>
      </trkpt>
      <trkpt lat="44.9902758" lon="6.8614471">
        <ele>2280.87</ele>
        <time>2011-01-30T15:24:13Z</time>
      </trkpt>
      <trkpt lat="44.99036" lon="6.8614345">
        <ele>2277.5</ele>
        <time>2011-01-30T15:24:15Z</time>
      </trkpt>
      <trkpt lat="44.9903326" lon="6.8613345">
        <ele>2275.58</ele>
        <time>2011-01-30T15:24:18Z</time>
      </trkpt>
      <trkpt lat="44.9902979" lon="6.8612694">
        <ele>2276.54</ele>
        <time>2011-01-30T15:24:25Z</time>
      </trkpt>
      <trkpt lat="44.9902859" lon="6.8609819">
        <ele>2273.66</ele>
        <time>2011-01-30T15:24:36Z</time>
      </trkpt>
      <trkpt lat="44.9902781" lon="6.8606944">
        <ele>2268.37</ele>
        <time>2011-01-30T15:24:40Z</time>
      </trkpt>
      <trkpt lat="44.9902855" lon="6.8604536">
        <ele>2264.52</ele>
        <time>2011-01-30T15:24:43Z</time>
      </trkpt>
      <trkpt lat="44.9903585" lon="6.8603648">
        <ele>2261.64</ele>
        <time>2011-01-30T15:24:45Z</time>
      </trkpt>
      <trkpt lat="44.9904306" lon="6.8604063">
        <ele>2260.2</ele>
        <time>2011-01-30T15:24:47Z</time>
      </trkpt>
      <trkpt lat="44.9904536" lon="6.8604146">
        <ele>2260.68</ele>
        <time>2011-01-30T15:24:51Z</time>
      </trkpt>
      <trkpt lat="44.9902975" lon="6.8601603">
        <ele>2255.39</ele>
        <time>2011-01-30T15:25:13Z</time>
      </trkpt>
      <trkpt lat="44.9903832" lon="6.8598597">
        <ele>2248.18</ele>
        <time>2011-01-30T15:25:17Z</time>
      </trkpt>
      <trkpt lat="44.990435" lon="6.8598252">
        <ele>2247.22</ele>
        <time>2011-01-30T15:25:18Z</time>
      </trkpt>
      <trkpt lat="44.9904853" lon="6.8597996">
        <ele>2246.26</ele>
        <time>2011-01-30T15:25:22Z</time>
      </trkpt>
      <trkpt lat="44.9904947" lon="6.8596486">
        <ele>2244.82</ele>
        <time>2011-01-30T15:26:13Z</time>
      </trkpt>
      <trkpt lat="44.9905751" lon="6.8593978">
        <ele>2240.01</ele>
        <time>2011-01-30T15:26:17Z</time>
      </trkpt>
      <trkpt lat="44.9906357" lon="6.8592982">
        <ele>2236.64</ele>
        <time>2011-01-30T15:26:19Z</time>
      </trkpt>
      <trkpt lat="44.9906593" lon="6.8591788">
        <ele>2231.84</ele>
        <time>2011-01-30T15:26:23Z</time>
      </trkpt>
      <trkpt lat="44.990662" lon="6.8591904">
        <ele>2230.88</ele>
        <time>2011-01-30T15:26:26Z</time>
      </trkpt>
      <trkpt lat="44.9908135" lon="6.8592293">
        <ele>2228.95</ele>
        <time>2011-01-30T15:26:59Z</time>
      </trkpt>
      <trkpt lat="44.9908258" lon="6.85923">
        <ele>2228.95</ele>
        <time>2011-01-30T15:27:01Z</time>
      </trkpt>
      <trkpt lat="44.9908383" lon="6.859172">
        <ele>2227.99</ele>
        <time>2011-01-30T15:27:06Z</time>
      </trkpt>
      <trkpt lat="44.9908366" lon="6.8591238">
        <ele>2227.51</ele>
        <time>2011-01-30T15:27:09Z</time>
      </trkpt>
      <trkpt lat="44.9908459" lon="6.859074">
        <ele>2227.51</ele>
        <time>2011-01-30T15:27:12Z</time>
      </trkpt>
      <trkpt lat="44.9908851" lon="6.8589451">
        <ele>2226.55</ele>
        <time>2011-01-30T15:27:17Z</time>
      </trkpt>
      <trkpt lat="44.9909663" lon="6.8587156">
        <ele>2225.59</ele>
        <time>2011-01-30T15:27:23Z</time>
      </trkpt>
      <trkpt lat="44.9909672" lon="6.8587079">
        <ele>2225.59</ele>
        <time>2011-01-30T15:27:24Z</time>
      </trkpt>
      <trkpt lat="44.9909098" lon="6.8585732">
        <ele>2223.67</ele>
        <time>2011-01-30T15:27:28Z</time>
      </trkpt>
      <trkpt lat="44.9907869" lon="6.8582721">
        <ele>2220.3</ele>
        <time>2011-01-30T15:27:34Z</time>
      </trkpt>
      <trkpt lat="44.9907512" lon="6.858154">
        <ele>2219.34</ele>
        <time>2011-01-30T15:27:36Z</time>
      </trkpt>
      <trkpt lat="44.990745" lon="6.8581255">
        <ele>2218.86</ele>
        <time>2011-01-30T15:27:37Z</time>
      </trkpt>
      <trkpt lat="44.9907458" lon="6.8581205">
        <ele>2218.86</ele>
        <time>2011-01-30T15:27:39Z</time>
      </trkpt>
      <trkpt lat="44.9907455" lon="6.85812">
        <ele>2218.86</ele>
        <time>2011-01-30T15:27:40Z</time>
      </trkpt>
      <trkpt lat="44.9908447" lon="6.8579848">
        <ele>2211.17</ele>
        <time>2011-01-30T15:28:01Z</time>
      </trkpt>
      <trkpt lat="44.9909069" lon="6.857855">
        <ele>2206.36</ele>
        <time>2011-01-30T15:28:04Z</time>
      </trkpt>
      <trkpt lat="44.9909817" lon="6.8577599">
        <ele>2200.59</ele>
        <time>2011-01-30T15:28:07Z</time>
      </trkpt>
      <trkpt lat="44.9909911" lon="6.8575889">
        <ele>2196.75</ele>
        <time>2011-01-30T15:28:09Z</time>
      </trkpt>
      <trkpt lat="44.9910165" lon="6.8574188">
        <ele>2192.9</ele>
        <time>2011-01-30T15:28:11Z</time>
      </trkpt>
      <trkpt lat="44.9910546" lon="6.8572365">
        <ele>2188.58</ele>
        <time>2011-01-30T15:28:13Z</time>
      </trkpt>
      <trkpt lat="44.9911753" lon="6.8570606">
        <ele>2184.25</ele>
        <time>2011-01-30T15:28:15Z</time>
      </trkpt>
      <trkpt lat="44.9912387" lon="6.8569688">
        <ele>2183.29</ele>
        <time>2011-01-30T15:28:16Z</time>
      </trkpt>
      <trkpt lat="44.9914026" lon="6.8567193">
        <ele>2180.89</ele>
        <time>2011-01-30T15:28:20Z</time>
      </trkpt>
      <trkpt lat="44.9913788" lon="6.8567014">
        <ele>2180.41</ele>
        <time>2011-01-30T15:28:22Z</time>
      </trkpt>
      <trkpt lat="44.9913397" lon="6.8567166">
        <ele>2180.41</ele>
        <time>2011-01-30T15:28:29Z</time>
      </trkpt>
      <trkpt lat="44.9912961" lon="6.8567226">
        <ele>2180.41</ele>
        <time>2011-01-30T15:28:35Z</time>
      </trkpt>
      <trkpt lat="44.9912328" lon="6.8567333">
        <ele>2180.89</ele>
        <time>2011-01-30T15:28:42Z</time>
      </trkpt>
      <trkpt lat="44.9911594" lon="6.8567485">
        <ele>2180.89</ele>
        <time>2011-01-30T15:28:45Z</time>
      </trkpt>
      <trkpt lat="44.9911086" lon="6.8567591">
        <ele>2181.37</ele>
        <time>2011-01-30T15:28:49Z</time>
      </trkpt>
      <trkpt lat="44.9911054" lon="6.8567606">
        <ele>2181.85</ele>
        <time>2011-01-30T15:28:52Z</time>
      </trkpt>
      <trkpt lat="44.9909989" lon="6.8567815">
        <ele>2184.73</ele>
        <time>2011-01-30T15:29:19Z</time>
      </trkpt>
      <trkpt lat="44.9907693" lon="6.8568252">
        <ele>2190.98</ele>
        <time>2011-01-30T15:29:29Z</time>
      </trkpt>
      <trkpt lat="44.9905694" lon="6.8568682">
        <ele>2197.23</ele>
        <time>2011-01-30T15:29:37Z</time>
      </trkpt>
      <trkpt lat="44.9903131" lon="6.8569213">
        <ele>2205.88</ele>
        <time>2011-01-30T15:29:48Z</time>
      </trkpt>
      <trkpt lat="44.9900553" lon="6.8569767">
        <ele>2212.13</ele>
        <time>2011-01-30T15:29:59Z</time>
      </trkpt>
      <trkpt lat="44.9897429" lon="6.8570338">
        <ele>2221.74</ele>
        <time>2011-01-30T15:30:13Z</time>
      </trkpt>
      <trkpt lat="44.9896012" lon="6.8570628">
        <ele>2224.15</ele>
        <time>2011-01-30T15:30:19Z</time>
      </trkpt>
      <trkpt lat="44.9892909" lon="6.8571273">
        <ele>2230.88</ele>
        <time>2011-01-30T15:30:32Z</time>
      </trkpt>
      <trkpt lat="44.9889812" lon="6.8571921">
        <ele>2239.53</ele>
        <time>2011-01-30T15:30:45Z</time>
      </trkpt>
      <trkpt lat="44.9887433" lon="6.857243">
        <ele>2247.22</ele>
        <time>2011-01-30T15:30:55Z</time>
      </trkpt>
      <trkpt lat="44.9885324" lon="6.8572864">
        <ele>2253.47</ele>
        <time>2011-01-30T15:31:04Z</time>
      </trkpt>
      <trkpt lat="44.9881698" lon="6.8573682">
        <ele>2264.04</ele>
        <time>2011-01-30T15:31:19Z</time>
      </trkpt>
      <trkpt lat="44.9878804" lon="6.857435">
        <ele>2274.62</ele>
        <time>2011-01-30T15:31:31Z</time>
      </trkpt>
      <trkpt lat="44.987683" lon="6.8574802">
        <ele>2280.38</ele>
        <time>2011-01-30T15:31:39Z</time>
      </trkpt>
      <trkpt lat="44.9873936" lon="6.8575452">
        <ele>2289.04</ele>
        <time>2011-01-30T15:31:51Z</time>
      </trkpt>
      <trkpt lat="44.9871104" lon="6.8576086">
        <ele>2298.65</ele>
        <time>2011-01-30T15:32:03Z</time>
      </trkpt>
      <trkpt lat="44.9869327" lon="6.8576512">
        <ele>2303.46</ele>
        <time>2011-01-30T15:32:10Z</time>
      </trkpt>
      <trkpt lat="44.9866356" lon="6.8577191">
        <ele>2311.15</ele>
        <time>2011-01-30T15:32:22Z</time>
      </trkpt>
      <trkpt lat="44.986272" lon="6.8577989">
        <ele>2323.16</ele>
        <time>2011-01-30T15:32:37Z</time>
      </trkpt>
      <trkpt lat="44.9861039" lon="6.8578386">
        <ele>2327.97</ele>
        <time>2011-01-30T15:32:44Z</time>
      </trkpt>
      <trkpt lat="44.9858807" lon="6.8578851">
        <ele>2331.33</ele>
        <time>2011-01-30T15:32:53Z</time>
      </trkpt>
      <trkpt lat="44.9855706" lon="6.8579583">
        <ele>2338.54</ele>
        <time>2011-01-30T15:33:05Z</time>
      </trkpt>
      <trkpt lat="44.9852257" lon="6.858035">
        <ele>2348.64</ele>
        <time>2011-01-30T15:33:19Z</time>
      </trkpt>
      <trkpt lat="44.984898" lon="6.8581101">
        <ele>2351.52</ele>
        <time>2011-01-30T15:33:32Z</time>
      </trkpt>
      <trkpt lat="44.984604" lon="6.8581748">
        <ele>2354.89</ele>
        <time>2011-01-30T15:33:44Z</time>
      </trkpt>
      <trkpt lat="44.9843878" lon="6.858222">
        <ele>2358.73</ele>
        <time>2011-01-30T15:33:53Z</time>
      </trkpt>
      <trkpt lat="44.9842077" lon="6.8582557">
        <ele>2362.58</ele>
        <time>2011-01-30T15:34:01Z</time>
      </trkpt>
      <trkpt lat="44.9839449" lon="6.8583173">
        <ele>2373.15</ele>
        <time>2011-01-30T15:34:12Z</time>
      </trkpt>
      <trkpt lat="44.9836363" lon="6.8583894">
        <ele>2387.09</ele>
        <time>2011-01-30T15:34:25Z</time>
      </trkpt>
      <trkpt lat="44.9833634" lon="6.8584489">
        <ele>2400.07</ele>
        <time>2011-01-30T15:34:37Z</time>
      </trkpt>
      <trkpt lat="44.9831965" lon="6.8584877">
        <ele>2405.36</ele>
        <time>2011-01-30T15:34:44Z</time>
      </trkpt>
      <trkpt lat="44.9827479" lon="6.8585859">
        <ele>2420.74</ele>
        <time>2011-01-30T15:35:03Z</time>
      </trkpt>
      <trkpt lat="44.9823314" lon="6.8586761">
        <ele>2437.08</ele>
        <time>2011-01-30T15:35:21Z</time>
      </trkpt>
      <trkpt lat="44.9821479" lon="6.858717">
        <ele>2442.37</ele>
        <time>2011-01-30T15:35:29Z</time>
      </trkpt>
      <trkpt lat="44.9817785" lon="6.8587996">
        <ele>2449.1</ele>
        <time>2011-01-30T15:35:44Z</time>
      </trkpt>
      <trkpt lat="44.9814149" lon="6.8588808">
        <ele>2457.75</ele>
        <time>2011-01-30T15:35:59Z</time>
      </trkpt>
      <trkpt lat="44.9811355" lon="6.8589383">
        <ele>2466.4</ele>
        <time>2011-01-30T15:36:11Z</time>
      </trkpt>
      <trkpt lat="44.9809256" lon="6.8589834">
        <ele>2480.34</ele>
        <time>2011-01-30T15:36:21Z</time>
      </trkpt>
      <trkpt lat="44.9806573" lon="6.8590471">
        <ele>2501.49</ele>
        <time>2011-01-30T15:36:34Z</time>
      </trkpt>
      <trkpt lat="44.9803977" lon="6.8591065">
        <ele>2523.12</ele>
        <time>2011-01-30T15:36:47Z</time>
      </trkpt>
      <trkpt lat="44.9801201" lon="6.8591694">
        <ele>2547.63</ele>
        <time>2011-01-30T15:37:01Z</time>
      </trkpt>
      <trkpt lat="44.9799517" lon="6.8592045">
        <ele>2559.17</ele>
        <time>2011-01-30T15:37:09Z</time>
      </trkpt>
      <trkpt lat="44.9796962" lon="6.8592596">
        <ele>2576.95</ele>
        <time>2011-01-30T15:37:21Z</time>
      </trkpt>
      <trkpt lat="44.9794809" lon="6.8593045">
        <ele>2590.41</ele>
        <time>2011-01-30T15:37:31Z</time>
      </trkpt>
      <trkpt lat="44.9791456" lon="6.8593744">
        <ele>2604.83</ele>
        <time>2011-01-30T15:37:45Z</time>
      </trkpt>
      <trkpt lat="44.9789581" lon="6.8594098">
        <ele>2611.08</ele>
        <time>2011-01-30T15:37:53Z</time>
      </trkpt>
      <trkpt lat="44.9784721" lon="6.859513">
        <ele>2624.54</ele>
        <time>2011-01-30T15:38:13Z</time>
      </trkpt>
      <trkpt lat="44.9781437" lon="6.8595865">
        <ele>2636.55</ele>
        <time>2011-01-30T15:38:27Z</time>
      </trkpt>
      <trkpt lat="44.9778389" lon="6.8596548">
        <ele>2651.93</ele>
        <time>2011-01-30T15:38:40Z</time>
      </trkpt>
      <trkpt lat="44.977505" lon="6.8597328">
        <ele>2671.64</ele>
        <time>2011-01-30T15:38:55Z</time>
      </trkpt>
      <trkpt lat="44.9773296" lon="6.8597742">
        <ele>2682.7</ele>
        <time>2011-01-30T15:39:03Z</time>
      </trkpt>
      <trkpt lat="44.9771338" lon="6.8598081">
        <ele>2695.19</ele>
        <time>2011-01-30T15:39:13Z</time>
      </trkpt>
      <trkpt lat="44.9770462" lon="6.8598272">
        <ele>2700.48</ele>
        <time>2011-01-30T15:39:17Z</time>
      </trkpt>
      <trkpt lat="44.976968" lon="6.8598403">
        <ele>2702.88</ele>
        <time>2011-01-30T15:39:21Z</time>
      </trkpt>
      <trkpt lat="44.9767686" lon="6.8598858">
        <ele>2701.92</ele>
        <time>2011-01-30T15:39:28Z</time>
      </trkpt>
      <trkpt lat="44.9767462" lon="6.8598895">
        <ele>2702.4</ele>
        <time>2011-01-30T15:39:29Z</time>
      </trkpt>
      <trkpt lat="44.9767339" lon="6.859902">
        <ele>2702.88</ele>
        <time>2011-01-30T15:39:32Z</time>
      </trkpt>
      <trkpt lat="44.9766744" lon="6.859753">
        <ele>2701.44</ele>
        <time>2011-01-30T15:40:00Z</time>
      </trkpt>
      <trkpt lat="44.9766731" lon="6.8597822">
        <ele>2701.44</ele>
        <time>2011-01-30T15:40:03Z</time>
      </trkpt>
      <trkpt lat="44.9766747" lon="6.8598449">
        <ele>2701.44</ele>
        <time>2011-01-30T15:40:09Z</time>
      </trkpt>
      <trkpt lat="44.9766793" lon="6.85986">
        <ele>2701.44</ele>
        <time>2011-01-30T15:40:12Z</time>
      </trkpt>
      <trkpt lat="44.9767652" lon="6.8601824">
        <ele>2714.42</ele>
        <time>2011-01-30T15:45:35Z</time>
      </trkpt>
      <trkpt lat="44.9766162" lon="6.8600951">
        <ele>2712.5</ele>
        <time>2011-01-30T15:48:42Z</time>
      </trkpt>
      <trkpt lat="44.9766389" lon="6.8600902">
        <ele>2710.57</ele>
        <time>2011-01-30T15:48:48Z</time>
      </trkpt>
      <trkpt lat="44.9764323" lon="6.8600607">
        <ele>2692.31</ele>
        <time>2011-01-30T15:51:19Z</time>
      </trkpt>
      <trkpt lat="44.9760927" lon="6.86012">
        <ele>2692.79</ele>
        <time>2011-01-30T15:51:25Z</time>
      </trkpt>
      <trkpt lat="44.9757537" lon="6.8601743">
        <ele>2685.1</ele>
        <time>2011-01-30T15:51:31Z</time>
      </trkpt>
      <trkpt lat="44.9751744" lon="6.8603034">
        <ele>2664.43</ele>
        <time>2011-01-30T15:51:42Z</time>
      </trkpt>
      <trkpt lat="44.974659" lon="6.8604468">
        <ele>2648.09</ele>
        <time>2011-01-30T15:51:52Z</time>
      </trkpt>
      <trkpt lat="44.9740345" lon="6.8606127">
        <ele>2631.75</ele>
        <time>2011-01-30T15:52:04Z</time>
      </trkpt>
      <trkpt lat="44.9735596" lon="6.8607297">
        <ele>2616.37</ele>
        <time>2011-01-30T15:52:13Z</time>
      </trkpt>
      <trkpt lat="44.9728388" lon="6.8609166">
        <ele>2594.74</ele>
        <time>2011-01-30T15:52:27Z</time>
      </trkpt>
      <trkpt lat="44.972122" lon="6.861096">
        <ele>2573.59</ele>
        <time>2011-01-30T15:52:41Z</time>
      </trkpt>
      <trkpt lat="44.971563" lon="6.8612306">
        <ele>2553.4</ele>
        <time>2011-01-30T15:52:52Z</time>
      </trkpt>
      <trkpt lat="44.9708498" lon="6.8614166">
        <ele>2530.81</ele>
        <time>2011-01-30T15:53:06Z</time>
      </trkpt>
      <trkpt lat="44.9702373" lon="6.8615854">
        <ele>2513.5</ele>
        <time>2011-01-30T15:53:18Z</time>
      </trkpt>
      <trkpt lat="44.9696874" lon="6.8617273">
        <ele>2493.8</ele>
        <time>2011-01-30T15:53:29Z</time>
      </trkpt>
      <trkpt lat="44.9689565" lon="6.86192">
        <ele>2461.11</ele>
        <time>2011-01-30T15:53:44Z</time>
      </trkpt>
      <trkpt lat="44.9684073" lon="6.8620848">
        <ele>2439</ele>
        <time>2011-01-30T15:53:55Z</time>
      </trkpt>
      <trkpt lat="44.9679721" lon="6.8622004">
        <ele>2418.81</ele>
        <time>2011-01-30T15:54:04Z</time>
      </trkpt>
      <trkpt lat="44.9674402" lon="6.8623514">
        <ele>2392.38</ele>
        <time>2011-01-30T15:54:15Z</time>
      </trkpt>
      <trkpt lat="44.9668624" lon="6.8625308">
        <ele>2365.46</ele>
        <time>2011-01-30T15:54:27Z</time>
      </trkpt>
      <trkpt lat="44.966383" lon="6.8626701">
        <ele>2341.91</ele>
        <time>2011-01-30T15:54:37Z</time>
      </trkpt>
      <trkpt lat="44.9657946" lon="6.8628167">
        <ele>2313.07</ele>
        <time>2011-01-30T15:54:49Z</time>
      </trkpt>
      <trkpt lat="44.9656413" lon="6.8628565">
        <ele>2307.3</ele>
        <time>2011-01-30T15:54:52Z</time>
      </trkpt>
      <trkpt lat="44.9654676" lon="6.862955">
        <ele>2299.61</ele>
        <time>2011-01-30T15:54:56Z</time>
      </trkpt>
      <trkpt lat="44.9654687" lon="6.8629895">
        <ele>2297.21</ele>
        <time>2011-01-30T15:55:01Z</time>
      </trkpt>
      <trkpt lat="44.9654707" lon="6.8629902">
        <ele>2298.17</ele>
        <time>2011-01-30T15:55:03Z</time>
      </trkpt>
      <trkpt lat="44.9654138" lon="6.8632756">
        <ele>2312.11</ele>
        <time>2011-01-30T15:57:53Z</time>
      </trkpt>
      <trkpt lat="44.9653443" lon="6.8634632">
        <ele>2308.74</ele>
        <time>2011-01-30T15:57:58Z</time>
      </trkpt>
      <trkpt lat="44.9651905" lon="6.8637344">
        <ele>2304.42</ele>
        <time>2011-01-30T15:58:02Z</time>
      </trkpt>
      <trkpt lat="44.9651414" lon="6.8638038">
        <ele>2302.49</ele>
        <time>2011-01-30T15:58:03Z</time>
      </trkpt>
      <trkpt lat="44.9650004" lon="6.8640584">
        <ele>2297.69</ele>
        <time>2011-01-30T15:58:07Z</time>
      </trkpt>
      <trkpt lat="44.964971" lon="6.8641169">
        <ele>2296.25</ele>
        <time>2011-01-30T15:58:08Z</time>
      </trkpt>
      <trkpt lat="44.9647926" lon="6.8644614">
        <ele>2287.11</ele>
        <time>2011-01-30T15:58:12Z</time>
      </trkpt>
      <trkpt lat="44.9645428" lon="6.8649261">
        <ele>2279.9</ele>
        <time>2011-01-30T15:58:16Z</time>
      </trkpt>
      <trkpt lat="44.9641668" lon="6.8656">
        <ele>2271.73</ele>
        <time>2011-01-30T15:58:22Z</time>
      </trkpt>
      <trkpt lat="44.9637365" lon="6.8664216">
        <ele>2259.72</ele>
        <time>2011-01-30T15:58:29Z</time>
      </trkpt>
      <trkpt lat="44.9635624" lon="6.866723">
        <ele>2255.87</ele>
        <time>2011-01-30T15:58:32Z</time>
      </trkpt>
      <trkpt lat="44.9633935" lon="6.8670085">
        <ele>2254.91</ele>
        <time>2011-01-30T15:58:36Z</time>
      </trkpt>
      <trkpt lat="44.9633019" lon="6.8671543">
        <ele>2254.43</ele>
        <time>2011-01-30T15:58:39Z</time>
      </trkpt>
      <trkpt lat="44.9632592" lon="6.8672369">
        <ele>2253.95</ele>
        <time>2011-01-30T15:58:41Z</time>
      </trkpt>
      <trkpt lat="44.9632108" lon="6.8673087">
        <ele>2253.95</ele>
        <time>2011-01-30T15:58:45Z</time>
      </trkpt>
      <trkpt lat="44.963161" lon="6.8673758">
        <ele>2253.47</ele>
        <time>2011-01-30T15:58:50Z</time>
      </trkpt>
      <trkpt lat="44.9631029" lon="6.8674735">
        <ele>2252.51</ele>
        <time>2011-01-30T15:58:55Z</time>
      </trkpt>
      <trkpt lat="44.9630976" lon="6.867477">
        <ele>2252.03</ele>
        <time>2011-01-30T15:58:57Z</time>
      </trkpt>
      <trkpt lat="44.9630458" lon="6.8675576">
        <ele>2252.51</ele>
        <time>2011-01-30T15:59:03Z</time>
      </trkpt>
      <trkpt lat="44.9629828" lon="6.8676501">
        <ele>2252.51</ele>
        <time>2011-01-30T15:59:09Z</time>
      </trkpt>
      <trkpt lat="44.9628793" lon="6.8677595">
        <ele>2250.1</ele>
        <time>2011-01-30T15:59:13Z</time>
      </trkpt>
      <trkpt lat="44.9627166" lon="6.868057">
        <ele>2247.7</ele>
        <time>2011-01-30T15:59:18Z</time>
      </trkpt>
      <trkpt lat="44.9626309" lon="6.8682533">
        <ele>2246.74</ele>
        <time>2011-01-30T15:59:23Z</time>
      </trkpt>
      <trkpt lat="44.9625755" lon="6.868391">
        <ele>2246.74</ele>
        <time>2011-01-30T15:59:27Z</time>
      </trkpt>
      <trkpt lat="44.9624749" lon="6.8686001">
        <ele>2245.78</ele>
        <time>2011-01-30T15:59:33Z</time>
      </trkpt>
      <trkpt lat="44.9623549" lon="6.8688536">
        <ele>2244.33</ele>
        <time>2011-01-30T15:59:40Z</time>
      </trkpt>
      <trkpt lat="44.962241" lon="6.8690903">
        <ele>2242.89</ele>
        <time>2011-01-30T15:59:46Z</time>
      </trkpt>
      <trkpt lat="44.9621105" lon="6.8692312">
        <ele>2240.01</ele>
        <time>2011-01-30T15:59:50Z</time>
      </trkpt>
      <trkpt lat="44.9619484" lon="6.8693918">
        <ele>2236.64</ele>
        <time>2011-01-30T15:59:53Z</time>
      </trkpt>
      <trkpt lat="44.9618321" lon="6.8694914">
        <ele>2233.76</ele>
        <time>2011-01-30T15:59:55Z</time>
      </trkpt>
      <trkpt lat="44.9617683" lon="6.8696017">
        <ele>2231.84</ele>
        <time>2011-01-30T15:59:57Z</time>
      </trkpt>
      <trkpt lat="44.9617398" lon="6.869757">
        <ele>2228.47</ele>
        <time>2011-01-30T16:00:01Z</time>
      </trkpt>
      <trkpt lat="44.9617182" lon="6.8697741">
        <ele>2227.51</ele>
        <time>2011-01-30T16:00:03Z</time>
      </trkpt>
      <trkpt lat="44.9617205" lon="6.869777">
        <ele>2227.51</ele>
        <time>2011-01-30T16:00:05Z</time>
      </trkpt>
      <trkpt lat="44.961738" lon="6.8700237">
        <ele>2224.63</ele>
        <time>2011-01-30T16:00:15Z</time>
      </trkpt>
      <trkpt lat="44.9617531" lon="6.870419">
        <ele>2220.78</ele>
        <time>2011-01-30T16:00:20Z</time>
      </trkpt>
      <trkpt lat="44.9618732" lon="6.8707947">
        <ele>2217.9</ele>
        <time>2011-01-30T16:00:25Z</time>
      </trkpt>
      <trkpt lat="44.9619551" lon="6.8711426">
        <ele>2214.05</ele>
        <time>2011-01-30T16:00:29Z</time>
      </trkpt>
      <trkpt lat="44.9619541" lon="6.8712546">
        <ele>2213.09</ele>
        <time>2011-01-30T16:00:30Z</time>
      </trkpt>
      <trkpt lat="44.9620281" lon="6.8717482">
        <ele>2207.81</ele>
        <time>2011-01-30T16:00:35Z</time>
      </trkpt>
      <trkpt lat="44.9621406" lon="6.8721554">
        <ele>2203.48</ele>
        <time>2011-01-30T16:00:40Z</time>
      </trkpt>
      <trkpt lat="44.9620916" lon="6.8722885">
        <ele>2200.59</ele>
        <time>2011-01-30T16:00:43Z</time>
      </trkpt>
      <trkpt lat="44.9620232" lon="6.8722383">
        <ele>2199.15</ele>
        <time>2011-01-30T16:00:45Z</time>
      </trkpt>
      <trkpt lat="44.961954" lon="6.8721636">
        <ele>2198.19</ele>
        <time>2011-01-30T16:00:47Z</time>
      </trkpt>
      <trkpt lat="44.9616705" lon="6.8718881">
        <ele>2192.42</ele>
        <time>2011-01-30T16:00:53Z</time>
      </trkpt>
      <trkpt lat="44.961562" lon="6.8717886">
        <ele>2190.5</ele>
        <time>2011-01-30T16:00:55Z</time>
      </trkpt>
      <trkpt lat="44.9613629" lon="6.8716393">
        <ele>2188.1</ele>
        <time>2011-01-30T16:00:59Z</time>
      </trkpt>
      <trkpt lat="44.961174" lon="6.8714338">
        <ele>2184.25</ele>
        <time>2011-01-30T16:01:03Z</time>
      </trkpt>
      <trkpt lat="44.9609231" lon="6.8711112">
        <ele>2179.45</ele>
        <time>2011-01-30T16:01:09Z</time>
      </trkpt>
      <trkpt lat="44.9606705" lon="6.8708123">
        <ele>2175.12</ele>
        <time>2011-01-30T16:01:15Z</time>
      </trkpt>
      <trkpt lat="44.9604203" lon="6.8705589">
        <ele>2170.79</ele>
        <time>2011-01-30T16:01:20Z</time>
      </trkpt>
      <trkpt lat="44.9603058" lon="6.8704616">
        <ele>2168.39</ele>
        <time>2011-01-30T16:01:22Z</time>
      </trkpt>
      <trkpt lat="44.9600812" lon="6.8702518">
        <ele>2164.55</ele>
        <time>2011-01-30T16:01:26Z</time>
      </trkpt>
      <trkpt lat="44.9599539" lon="6.8702927">
        <ele>2161.18</ele>
        <time>2011-01-30T16:01:29Z</time>
      </trkpt>
      <trkpt lat="44.959972" lon="6.8704118">
        <ele>2159.74</ele>
        <time>2011-01-30T16:01:31Z</time>
      </trkpt>
      <trkpt lat="44.9599994" lon="6.8705568">
        <ele>2157.82</ele>
        <time>2011-01-30T16:01:33Z</time>
      </trkpt>
      <trkpt lat="44.9601967" lon="6.8712177">
        <ele>2153.97</ele>
        <time>2011-01-30T16:01:41Z</time>
      </trkpt>
      <trkpt lat="44.9602906" lon="6.8715311">
        <ele>2152.05</ele>
        <time>2011-01-30T16:01:45Z</time>
      </trkpt>
      <trkpt lat="44.9604161" lon="6.872141">
        <ele>2149.16</ele>
        <time>2011-01-30T16:01:53Z</time>
      </trkpt>
      <trkpt lat="44.9604313" lon="6.8722145">
        <ele>2149.16</ele>
        <time>2011-01-30T16:01:54Z</time>
      </trkpt>
      <trkpt lat="44.9604777" lon="6.8725284">
        <ele>2146.76</ele>
        <time>2011-01-30T16:01:58Z</time>
      </trkpt>
      <trkpt lat="44.9606025" lon="6.8730078">
        <ele>2142.44</ele>
        <time>2011-01-30T16:02:04Z</time>
      </trkpt>
      <trkpt lat="44.9607303" lon="6.87335">
        <ele>2138.59</ele>
        <time>2011-01-30T16:02:09Z</time>
      </trkpt>
      <trkpt lat="44.9608572" lon="6.8737825">
        <ele>2133.78</ele>
        <time>2011-01-30T16:02:14Z</time>
      </trkpt>
      <trkpt lat="44.9608756" lon="6.873868">
        <ele>2133.3</ele>
        <time>2011-01-30T16:02:15Z</time>
      </trkpt>
      <trkpt lat="44.9609687" lon="6.8741767">
        <ele>2130.9</ele>
        <time>2011-01-30T16:02:19Z</time>
      </trkpt>
      <trkpt lat="44.9608898" lon="6.8742065">
        <ele>2129.46</ele>
        <time>2011-01-30T16:02:21Z</time>
      </trkpt>
      <trkpt lat="44.9608119" lon="6.8741231">
        <ele>2128.5</ele>
        <time>2011-01-30T16:02:24Z</time>
      </trkpt>
      <trkpt lat="44.9606818" lon="6.874084">
        <ele>2124.65</ele>
        <time>2011-01-30T16:02:29Z</time>
      </trkpt>
      <trkpt lat="44.9606713" lon="6.8741034">
        <ele>2124.65</ele>
        <time>2011-01-30T16:02:32Z</time>
      </trkpt>
      <trkpt lat="44.9604663" lon="6.8739529">
        <ele>2121.77</ele>
        <time>2011-01-30T16:03:53Z</time>
      </trkpt>
      <trkpt lat="44.9603573" lon="6.8738727">
        <ele>2120.32</ele>
        <time>2011-01-30T16:03:57Z</time>
      </trkpt>
      <trkpt lat="44.9603469" lon="6.8738741">
        <ele>2119.36</ele>
        <time>2011-01-30T16:04:00Z</time>
      </trkpt>
      <trkpt lat="44.9602343" lon="6.8738418">
        <ele>2116.48</ele>
        <time>2011-01-30T16:04:07Z</time>
      </trkpt>
      <trkpt lat="44.9601721" lon="6.8738104">
        <ele>2115.04</ele>
        <time>2011-01-30T16:04:10Z</time>
      </trkpt>
      <trkpt lat="44.960095" lon="6.8737099">
        <ele>2113.6</ele>
        <time>2011-01-30T16:04:17Z</time>
      </trkpt>
      <trkpt lat="44.9600924" lon="6.8737061">
        <ele>2113.6</ele>
        <time>2011-01-30T16:04:19Z</time>
      </trkpt>
      <trkpt lat="44.9598289" lon="6.8735401">
        <ele>2106.39</ele>
        <time>2011-01-30T16:04:59Z</time>
      </trkpt>
      <trkpt lat="44.959827" lon="6.8735381">
        <ele>2105.91</ele>
        <time>2011-01-30T16:05:01Z</time>
      </trkpt>
      <trkpt lat="44.9597665" lon="6.8735125">
        <ele>2103.02</ele>
        <time>2011-01-30T16:05:05Z</time>
      </trkpt>
      <trkpt lat="44.9597332" lon="6.873501">
        <ele>2102.06</ele>
        <time>2011-01-30T16:05:06Z</time>
      </trkpt>
      <trkpt lat="44.9596519" lon="6.8736282">
        <ele>2098.7</ele>
        <time>2011-01-30T16:05:10Z</time>
      </trkpt>
      <trkpt lat="44.9596499" lon="6.8736354">
        <ele>2098.7</ele>
        <time>2011-01-30T16:05:12Z</time>
      </trkpt>
      <trkpt lat="44.9595468" lon="6.873745">
        <ele>2094.37</ele>
        <time>2011-01-30T16:05:26Z</time>
      </trkpt>
      <trkpt lat="44.9595082" lon="6.8737106">
        <ele>2092.93</ele>
        <time>2011-01-30T16:05:27Z</time>
      </trkpt>
      <trkpt lat="44.9593342" lon="6.8735665">
        <ele>2087.64</ele>
        <time>2011-01-30T16:05:32Z</time>
      </trkpt>
      <trkpt lat="44.9593273" lon="6.8735493">
        <ele>2086.68</ele>
        <time>2011-01-30T16:05:36Z</time>
      </trkpt>
      <trkpt lat="44.9592448" lon="6.8736004">
        <ele>2083.31</ele>
        <time>2011-01-30T16:05:58Z</time>
      </trkpt>
      <trkpt lat="44.9591986" lon="6.8736129">
        <ele>2080.91</ele>
        <time>2011-01-30T16:06:01Z</time>
      </trkpt>
      <trkpt lat="44.9591964" lon="6.8736137">
        <ele>2080.91</ele>
        <time>2011-01-30T16:06:03Z</time>
      </trkpt>
      <trkpt lat="44.9591583" lon="6.8734976">
        <ele>2078.03</ele>
        <time>2011-01-30T16:06:27Z</time>
      </trkpt>
      <trkpt lat="44.9591464" lon="6.8734685">
        <ele>2078.03</ele>
        <time>2011-01-30T16:06:31Z</time>
      </trkpt>
      <trkpt lat="44.9590779" lon="6.8733732">
        <ele>2075.62</ele>
        <time>2011-01-30T16:06:37Z</time>
      </trkpt>
      <trkpt lat="44.9590403" lon="6.8733246">
        <ele>2075.14</ele>
        <time>2011-01-30T16:06:39Z</time>
      </trkpt>
      <trkpt lat="44.9590019" lon="6.8733059">
        <ele>2074.18</ele>
        <time>2011-01-30T16:06:43Z</time>
      </trkpt>
      <trkpt lat="44.9590018" lon="6.8733075">
        <ele>2074.18</ele>
        <time>2011-01-30T16:06:44Z</time>
      </trkpt>
      <trkpt lat="44.9590723" lon="6.873867">
        <ele>2068.41</ele>
        <time>2011-01-30T16:09:59Z</time>
      </trkpt>
      <trkpt lat="44.9590749" lon="6.8738693">
        <ele>2067.93</ele>
        <time>2011-01-30T16:10:01Z</time>
      </trkpt>
      <trkpt lat="44.9591723" lon="6.8741364">
        <ele>2066.97</ele>
        <time>2011-01-30T16:10:29Z</time>
      </trkpt>
      <trkpt lat="44.9592344" lon="6.8743337">
        <ele>2067.93</ele>
        <time>2011-01-30T16:10:34Z</time>
      </trkpt>
      <trkpt lat="44.9593266" lon="6.8745423">
        <ele>2072.26</ele>
        <time>2011-01-30T16:10:39Z</time>
      </trkpt>
      <trkpt lat="44.9593903" lon="6.8747547">
        <ele>2077.07</ele>
        <time>2011-01-30T16:10:44Z</time>
      </trkpt>
      <trkpt lat="44.9594409" lon="6.8749149">
        <ele>2077.07</ele>
        <time>2011-01-30T16:10:49Z</time>
      </trkpt>
      <trkpt lat="44.9594654" lon="6.8751182">
        <ele>2075.14</ele>
        <time>2011-01-30T16:10:54Z</time>
      </trkpt>
      <trkpt lat="44.9595499" lon="6.8753221">
        <ele>2071.3</ele>
        <time>2011-01-30T16:11:00Z</time>
      </trkpt>
      <trkpt lat="44.9596871" lon="6.8755473">
        <ele>2070.34</ele>
        <time>2011-01-30T16:11:06Z</time>
      </trkpt>
      <trkpt lat="44.9598387" lon="6.8758182">
        <ele>2070.34</ele>
        <time>2011-01-30T16:11:11Z</time>
      </trkpt>
      <trkpt lat="44.9599221" lon="6.8759928">
        <ele>2067.93</ele>
        <time>2011-01-30T16:11:15Z</time>
      </trkpt>
      <trkpt lat="44.9599774" lon="6.876084">
        <ele>2067.45</ele>
        <time>2011-01-30T16:11:17Z</time>
      </trkpt>
      <trkpt lat="44.9600659" lon="6.8764247">
        <ele>2063.13</ele>
        <time>2011-01-30T16:11:22Z</time>
      </trkpt>
      <trkpt lat="44.9600057" lon="6.8767372">
        <ele>2058.8</ele>
        <time>2011-01-30T16:11:26Z</time>
      </trkpt>
      <trkpt lat="44.9599735" lon="6.8768054">
        <ele>2058.32</ele>
        <time>2011-01-30T16:11:27Z</time>
      </trkpt>
      <trkpt lat="44.9596887" lon="6.8771594">
        <ele>2054.47</ele>
        <time>2011-01-30T16:11:34Z</time>
      </trkpt>
      <trkpt lat="44.9595401" lon="6.8772682">
        <ele>2054.47</ele>
        <time>2011-01-30T16:11:38Z</time>
      </trkpt>
      <trkpt lat="44.9593753" lon="6.8772226">
        <ele>2054.47</ele>
        <time>2011-01-30T16:11:43Z</time>
      </trkpt>
      <trkpt lat="44.9593366" lon="6.8771029">
        <ele>2052.55</ele>
        <time>2011-01-30T16:11:45Z</time>
      </trkpt>
      <trkpt lat="44.9592857" lon="6.8768776">
        <ele>2051.11</ele>
        <time>2011-01-30T16:11:48Z</time>
      </trkpt>
      <trkpt lat="44.9591106" lon="6.8764285">
        <ele>2051.59</ele>
        <time>2011-01-30T16:11:54Z</time>
      </trkpt>
      <trkpt lat="44.9589432" lon="6.8760517">
        <ele>2048.71</ele>
        <time>2011-01-30T16:11:59Z</time>
      </trkpt>
      <trkpt lat="44.9587069" lon="6.8755555">
        <ele>2045.82</ele>
        <time>2011-01-30T16:12:06Z</time>
      </trkpt>
      <trkpt lat="44.9585534" lon="6.8752327">
        <ele>2040.54</ele>
        <time>2011-01-30T16:12:11Z</time>
      </trkpt>
      <trkpt lat="44.9583353" lon="6.8751447">
        <ele>2037.65</ele>
        <time>2011-01-30T16:12:16Z</time>
      </trkpt>
      <trkpt lat="44.9579636" lon="6.8751423">
        <ele>2030.44</ele>
        <time>2011-01-30T16:12:22Z</time>
      </trkpt>
      <trkpt lat="44.957568" lon="6.8751169">
        <ele>2027.08</ele>
        <time>2011-01-30T16:12:28Z</time>
      </trkpt>
      <trkpt lat="44.9573337" lon="6.875227">
        <ele>2024.67</ele>
        <time>2011-01-30T16:12:32Z</time>
      </trkpt>
      <trkpt lat="44.9572453" lon="6.8754472">
        <ele>2025.15</ele>
        <time>2011-01-30T16:12:35Z</time>
      </trkpt>
      <trkpt lat="44.9572811" lon="6.8757136">
        <ele>2027.08</ele>
        <time>2011-01-30T16:12:38Z</time>
      </trkpt>
      <trkpt lat="44.9573003" lon="6.8758042">
        <ele>2027.08</ele>
        <time>2011-01-30T16:12:39Z</time>
      </trkpt>
      <trkpt lat="44.9572872" lon="6.8764089">
        <ele>2027.56</ele>
        <time>2011-01-30T16:12:46Z</time>
      </trkpt>
      <trkpt lat="44.9572067" lon="6.8766403">
        <ele>2027.08</ele>
        <time>2011-01-30T16:12:50Z</time>
      </trkpt>
      <trkpt lat="44.9571259" lon="6.8768339">
        <ele>2026.6</ele>
        <time>2011-01-30T16:12:55Z</time>
      </trkpt>
      <trkpt lat="44.957115" lon="6.8770573">
        <ele>2027.08</ele>
        <time>2011-01-30T16:12:59Z</time>
      </trkpt>
      <trkpt lat="44.9570732" lon="6.8773451">
        <ele>2032.84</ele>
        <time>2011-01-30T16:13:03Z</time>
      </trkpt>
      <trkpt lat="44.9569403" lon="6.8776189">
        <ele>2036.69</ele>
        <time>2011-01-30T16:13:07Z</time>
      </trkpt>
      <trkpt lat="44.9565828" lon="6.8780063">
        <ele>2038.13</ele>
        <time>2011-01-30T16:13:14Z</time>
      </trkpt>
      <trkpt lat="44.9564553" lon="6.8781398">
        <ele>2042.46</ele>
        <time>2011-01-30T16:13:17Z</time>
      </trkpt>
      <trkpt lat="44.9563315" lon="6.8784839">
        <ele>2045.34</ele>
        <time>2011-01-30T16:13:23Z</time>
      </trkpt>
      <trkpt lat="44.9563378" lon="6.8787092">
        <ele>2050.15</ele>
        <time>2011-01-30T16:13:27Z</time>
      </trkpt>
      <trkpt lat="44.9563953" lon="6.878931">
        <ele>2049.19</ele>
        <time>2011-01-30T16:13:33Z</time>
      </trkpt>
      <trkpt lat="44.9564154" lon="6.8789656">
        <ele>2043.42</ele>
        <time>2011-01-30T16:13:37Z</time>
      </trkpt>
      <trkpt lat="44.9566522" lon="6.8789507">
        <ele>2050.63</ele>
        <time>2011-01-30T16:14:12Z</time>
      </trkpt>
      <trkpt lat="44.9567006" lon="6.8790002">
        <ele>2051.59</ele>
        <time>2011-01-30T16:14:17Z</time>
      </trkpt>
      <trkpt lat="44.9567196" lon="6.8791171">
        <ele>2051.59</ele>
        <time>2011-01-30T16:14:28Z</time>
      </trkpt>
      <trkpt lat="44.9567387" lon="6.8791382">
        <ele>2050.63</ele>
        <time>2011-01-30T16:14:32Z</time>
      </trkpt>
      <trkpt lat="44.9567405" lon="6.8791401">
        <ele>2049.67</ele>
        <time>2011-01-30T16:14:34Z</time>
      </trkpt>
      <trkpt lat="44.9566822" lon="6.8792765">
        <ele>2006.41</ele>
        <time>2011-01-30T16:22:28Z</time>
      </trkpt>
      <trkpt lat="44.9565654" lon="6.8793152">
        <ele>2007.37</ele>
        <time>2011-01-30T16:22:32Z</time>
      </trkpt>
      <trkpt lat="44.9566775" lon="6.8789728">
        <ele>2037.17</ele>
        <time>2011-01-30T16:23:40Z</time>
      </trkpt>
      <trkpt lat="44.9566014" lon="6.8792499">
        <ele>2046.78</ele>
        <time>2011-01-30T16:23:48Z</time>
      </trkpt>
      <trkpt lat="44.9565847" lon="6.8792716">
        <ele>2047.75</ele>
        <time>2011-01-30T16:23:49Z</time>
      </trkpt>
      <trkpt lat="44.9565474" lon="6.8793053">
        <ele>2049.19</ele>
        <time>2011-01-30T16:23:55Z</time>
      </trkpt>
      <trkpt lat="44.9564937" lon="6.8793583">
        <ele>2067.45</ele>
        <time>2011-01-30T16:23:58Z</time>
      </trkpt>
      <trkpt lat="44.9564785" lon="6.8793464">
        <ele>2078.99</ele>
        <time>2011-01-30T16:24:10Z</time>
      </trkpt>
      <trkpt lat="44.9564226" lon="6.8792247">
        <ele>2085.72</ele>
        <time>2011-01-30T16:24:16Z</time>
      </trkpt>
      <trkpt lat="44.9565564" lon="6.8793641">
        <ele>2079.95</ele>
        <time>2011-01-30T16:25:12Z</time>
      </trkpt>
      <trkpt lat="44.9565608" lon="6.8793506">
        <ele>2078.03</ele>
        <time>2011-01-30T16:25:17Z</time>
      </trkpt>
      <trkpt lat="44.9565525" lon="6.8791834">
        <ele>2084.76</ele>
        <time>2011-01-30T16:26:00Z</time>
      </trkpt>
      <trkpt lat="44.9564789" lon="6.879201">
        <ele>2096.77</ele>
        <time>2011-01-30T16:26:03Z</time>
      </trkpt>
      <trkpt lat="44.9565212" lon="6.879018">
        <ele>2079.95</ele>
        <time>2011-01-30T16:26:44Z</time>
      </trkpt>
      <trkpt lat="44.9563745" lon="6.879062">
        <ele>2120.81</ele>
        <time>2011-01-30T16:26:54Z</time>
      </trkpt>
      <trkpt lat="44.9563579" lon="6.8790526">
        <ele>2130.9</ele>
        <time>2011-01-30T16:26:56Z</time>
      </trkpt>
      <trkpt lat="44.9563122" lon="6.8790957">
        <ele>2156.86</ele>
        <time>2011-01-30T16:27:00Z</time>
      </trkpt>
      <trkpt lat="44.9562783" lon="6.8791055">
        <ele>2183.29</ele>
        <time>2011-01-30T16:27:14Z</time>
      </trkpt>
      <trkpt lat="44.9562827" lon="6.8790124">
        <ele>2176.08</ele>
        <time>2011-01-30T16:27:21Z</time>
      </trkpt>
      <trkpt lat="44.9562831" lon="6.8790097">
        <ele>2174.64</ele>
        <time>2011-01-30T16:27:24Z</time>
      </trkpt>
      <trkpt lat="44.956289" lon="6.8790382">
        <ele>2178.97</ele>
        <time>2011-01-30T16:27:32Z</time>
      </trkpt>
      <trkpt lat="44.9563028" lon="6.8789934">
        <ele>2171.27</ele>
        <time>2011-01-30T16:27:44Z</time>
      </trkpt>
      <trkpt lat="44.9563119" lon="6.8788879">
        <ele>2162.62</ele>
        <time>2011-01-30T16:27:48Z</time>
      </trkpt>
      <trkpt lat="44.956306" lon="6.8791528">
        <ele>2162.14</ele>
        <time>2011-01-30T16:27:58Z</time>
      </trkpt>
      <trkpt lat="44.9563009" lon="6.8791429">
        <ele>2162.14</ele>
        <time>2011-01-30T16:27:59Z</time>
      </trkpt>
      <trkpt lat="44.9563148" lon="6.8789827">
        <ele>2158.78</ele>
        <time>2011-01-30T16:28:07Z</time>
      </trkpt>
      <trkpt lat="44.9563012" lon="6.8789994">
        <ele>2159.26</ele>
        <time>2011-01-30T16:28:11Z</time>
      </trkpt>
      <trkpt lat="44.956251" lon="6.8790382">
        <ele>2155.41</ele>
        <time>2011-01-30T16:28:19Z</time>
      </trkpt>
      <trkpt lat="44.9562315" lon="6.8788777">
        <ele>2147.24</ele>
        <time>2011-01-30T16:28:35Z</time>
      </trkpt>
      <trkpt lat="44.9563148" lon="6.8788513">
        <ele>2125.13</ele>
        <time>2011-01-30T16:29:06Z</time>
      </trkpt>
      <trkpt lat="44.9562964" lon="6.8788911">
        <ele>2143.4</ele>
        <time>2011-01-30T16:29:27Z</time>
      </trkpt>
      <trkpt lat="44.9561621" lon="6.8788523">
        <ele>2143.4</ele>
        <time>2011-01-30T16:30:12Z</time>
      </trkpt>
      <trkpt lat="44.9566884" lon="6.8788449">
        <ele>2004.49</ele>
        <time>2011-01-30T16:32:25Z</time>
      </trkpt>
      <trkpt lat="44.9568343" lon="6.8787061">
        <ele>1957.86</ele>
        <time>2011-01-30T16:32:34Z</time>
      </trkpt>
      <trkpt lat="44.9566403" lon="6.8790183">
        <ele>2065.53</ele>
        <time>2011-01-30T16:33:20Z</time>
      </trkpt>
      <trkpt lat="44.9566759" lon="6.8790316">
        <ele>2040.54</ele>
        <time>2011-01-30T16:34:23Z</time>
      </trkpt>
      <trkpt lat="44.9566796" lon="6.8790526">
        <ele>2046.3</ele>
        <time>2011-01-30T16:34:27Z</time>
      </trkpt>
      <trkpt lat="44.9566998" lon="6.8790744">
        <ele>2061.2</ele>
        <time>2011-01-30T16:35:10Z</time>
      </trkpt>
      <trkpt lat="44.9566926" lon="6.8787756">
        <ele>2024.67</ele>
        <time>2011-01-30T16:36:37Z</time>
      </trkpt>
      <trkpt lat="44.9566971" lon="6.8789575">
        <ele>2031.88</ele>
        <time>2011-01-30T16:36:44Z</time>
      </trkpt>
      <trkpt lat="44.9566899" lon="6.8790479">
        <ele>2042.46</ele>
        <time>2011-01-30T16:37:00Z</time>
      </trkpt>
      <trkpt lat="44.9566791" lon="6.8790611">
        <ele>2032.36</ele>
        <time>2011-01-30T16:37:21Z</time>
      </trkpt>
      <trkpt lat="44.9566763" lon="6.8790278">
        <ele>2028.04</ele>
        <time>2011-01-30T16:37:28Z</time>
      </trkpt>
      <trkpt lat="44.9566029" lon="6.8791245">
        <ele>2028.52</ele>
        <time>2011-01-30T16:37:33Z</time>
      </trkpt>
      <trkpt lat="44.9566827" lon="6.8789693">
        <ele>2029.48</ele>
        <time>2011-01-30T16:37:48Z</time>
      </trkpt>
      <trkpt lat="44.9566146" lon="6.8791107">
        <ele>2076.1</ele>
        <time>2011-01-30T16:39:18Z</time>
      </trkpt>
      <trkpt lat="44.9565998" lon="6.8791552">
        <ele>2077.55</ele>
        <time>2011-01-30T16:39:20Z</time>
      </trkpt>
      <trkpt lat="44.9566143" lon="6.8793146">
        <ele>2092.93</ele>
        <time>2011-01-30T16:40:26Z</time>
      </trkpt>
      <trkpt lat="44.9566242" lon="6.8792499">
        <ele>2083.79</ele>
        <time>2011-01-30T16:40:31Z</time>
      </trkpt>
      <trkpt lat="44.9566748" lon="6.8791355">
        <ele>2064.57</ele>
        <time>2011-01-30T16:40:36Z</time>
      </trkpt>
      <trkpt lat="44.9566377" lon="6.8788216">
        <ele>2046.3</ele>
        <time>2011-01-30T16:41:03Z</time>
      </trkpt>
      <trkpt lat="44.9567426" lon="6.8789273">
        <ele>2032.36</ele>
        <time>2011-01-30T16:41:30Z</time>
      </trkpt>
      <trkpt lat="44.9567454" lon="6.8789282">
        <ele>2033.81</ele>
        <time>2011-01-30T16:41:32Z</time>
      </trkpt>
      <trkpt lat="44.9565792" lon="6.8790684">
        <ele>2083.31</ele>
        <time>2011-01-30T16:42:41Z</time>
      </trkpt>
      <trkpt lat="44.9564854" lon="6.8790553">
        <ele>2124.17</ele>
        <time>2011-01-30T16:42:50Z</time>
      </trkpt>
      <trkpt lat="44.9567195" lon="6.879535">
        <ele>2158.3</ele>
        <time>2011-01-30T16:48:20Z</time>
      </trkpt>
      <trkpt lat="44.9567587" lon="6.8794898">
        <ele>2156.86</ele>
        <time>2011-01-30T16:48:54Z</time>
      </trkpt>
      <trkpt lat="44.956734" lon="6.8795168">
        <ele>2157.34</ele>
        <time>2011-01-30T16:49:00Z</time>
      </trkpt>
      <trkpt lat="44.9566937" lon="6.8795449">
        <ele>2157.34</ele>
        <time>2011-01-30T16:49:14Z</time>
      </trkpt>
      <trkpt lat="44.9566826" lon="6.8795194">
        <ele>2158.3</ele>
        <time>2011-01-30T16:49:26Z</time>
      </trkpt>
      <trkpt lat="44.9568323" lon="6.8795604">
        <ele>2177.04</ele>
        <time>2011-01-30T16:50:32Z</time>
      </trkpt>
      <trkpt lat="44.956716" lon="6.8796675">
        <ele>2178.97</ele>
        <time>2011-01-30T16:51:00Z</time>
      </trkpt>
      <trkpt lat="44.9567183" lon="6.8796209">
        <ele>2168.87</ele>
        <time>2011-01-30T16:51:04Z</time>
      </trkpt>
      <trkpt lat="44.9564911" lon="6.8793469">
        <ele>2081.39</ele>
        <time>2011-01-30T16:51:30Z</time>
      </trkpt>
      <trkpt lat="44.9564227" lon="6.8793657">
        <ele>2069.86</ele>
        <time>2011-01-30T16:51:37Z</time>
      </trkpt>
      <trkpt lat="44.9564019" lon="6.8793903">
        <ele>2066.01</ele>
        <time>2011-01-30T16:51:41Z</time>
      </trkpt>
      <trkpt lat="44.9564833" lon="6.8793397">
        <ele>2061.68</ele>
        <time>2011-01-30T16:51:48Z</time>
      </trkpt>
      <trkpt lat="44.9564942" lon="6.8792775">
        <ele>2060.24</ele>
        <time>2011-01-30T16:51:53Z</time>
      </trkpt>
      <trkpt lat="44.9567385" lon="6.8790303">
        <ele>2053.03</ele>
        <time>2011-01-30T16:52:33Z</time>
      </trkpt>
      <trkpt lat="44.9566655" lon="6.8790754">
        <ele>2054.96</ele>
        <time>2011-01-30T16:52:45Z</time>
      </trkpt>
      <trkpt lat="44.9566992" lon="6.8790387">
        <ele>2050.15</ele>
        <time>2011-01-30T16:52:52Z</time>
      </trkpt>
      <trkpt lat="44.9566998" lon="6.8790377">
        <ele>2049.67</ele>
        <time>2011-01-30T16:52:53Z</time>
      </trkpt>
      <trkpt lat="44.956723" lon="6.8790248">
        <ele>2050.63</ele>
        <time>2011-01-30T16:53:20Z</time>
      </trkpt>
      <trkpt lat="44.9567367" lon="6.8790626">
        <ele>2045.82</ele>
        <time>2011-01-30T16:53:41Z</time>
      </trkpt>
      <trkpt lat="44.956679" lon="6.8790461">
        <ele>2060.24</ele>
        <time>2011-01-30T16:53:52Z</time>
      </trkpt>
      <trkpt lat="44.956606" lon="6.8790038">
        <ele>2066.49</ele>
        <time>2011-01-30T16:53:56Z</time>
      </trkpt>
      <trkpt lat="44.9566607" lon="6.8790387">
        <ele>2061.2</ele>
        <time>2011-01-30T16:54:10Z</time>
      </trkpt>
      <trkpt lat="44.9566634" lon="6.8790271">
        <ele>2052.07</ele>
        <time>2011-01-30T16:55:39Z</time>
      </trkpt>
      <trkpt lat="44.9566716" lon="6.8790163">
        <ele>2057.84</ele>
        <time>2011-01-30T16:56:26Z</time>
      </trkpt>
      <trkpt lat="44.9567268" lon="6.8790355">
        <ele>2053.03</ele>
        <time>2011-01-30T16:56:31Z</time>
      </trkpt>
      <trkpt lat="44.9567714" lon="6.8790471">
        <ele>2045.34</ele>
        <time>2011-01-30T16:56:37Z</time>
      </trkpt>
      <trkpt lat="44.9567698" lon="6.8790815">
        <ele>2044.38</ele>
        <time>2011-01-30T16:56:41Z</time>
      </trkpt>
      <trkpt lat="44.9568102" lon="6.8790323">
        <ele>2036.69</ele>
        <time>2011-01-30T16:56:55Z</time>
      </trkpt>
      <trkpt lat="44.9567903" lon="6.8790289">
        <ele>2037.65</ele>
        <time>2011-01-30T16:57:00Z</time>
      </trkpt>
      <trkpt lat="44.9567413" lon="6.879034">
        <ele>2044.86</ele>
        <time>2011-01-30T16:57:07Z</time>
      </trkpt>
      <trkpt lat="44.9567423" lon="6.87906">
        <ele>2050.63</ele>
        <time>2011-01-30T16:57:41Z</time>
      </trkpt>
      <trkpt lat="44.9568726" lon="6.8791952">
        <ele>2048.71</ele>
        <time>2011-01-30T16:58:36Z</time>
      </trkpt>
      <trkpt lat="44.9567794" lon="6.8790886">
        <ele>2048.71</ele>
        <time>2011-01-30T16:58:41Z</time>
      </trkpt>
      <trkpt lat="44.9566678" lon="6.8790553">
        <ele>2052.55</ele>
        <time>2011-01-30T16:58:54Z</time>
      </trkpt>
      <trkpt lat="44.9567074" lon="6.8790538">
        <ele>2050.15</ele>
        <time>2011-01-30T16:59:11Z</time>
      </trkpt>
      <trkpt lat="44.9566962" lon="6.8790232">
        <ele>2049.19</ele>
        <time>2011-01-30T16:59:19Z</time>
      </trkpt>
      <trkpt lat="44.9567324" lon="6.8790507">
        <ele>2044.86</ele>
        <time>2011-01-30T17:00:39Z</time>
      </trkpt>
      <trkpt lat="44.9567265" lon="6.8790269">
        <ele>2039.57</ele>
        <time>2011-01-30T17:00:54Z</time>
      </trkpt>
      <trkpt lat="44.9567908" lon="6.8789621">
        <ele>2038.61</ele>
        <time>2011-01-30T17:00:58Z</time>
      </trkpt>
      <trkpt lat="44.9569008" lon="6.8789583">
        <ele>2040.05</ele>
        <time>2011-01-30T17:01:04Z</time>
      </trkpt>
      <trkpt lat="44.9569164" lon="6.8789587">
        <ele>2041.02</ele>
        <time>2011-01-30T17:01:10Z</time>
      </trkpt>
      <trkpt lat="44.9568918" lon="6.8789424">
        <ele>2037.65</ele>
        <time>2011-01-30T17:01:16Z</time>
      </trkpt>
      <trkpt lat="44.9566785" lon="6.8789867">
        <ele>2029.96</ele>
        <time>2011-01-30T17:01:33Z</time>
      </trkpt>
      <trkpt lat="44.9567317" lon="6.8790036">
        <ele>2042.46</ele>
        <time>2011-01-30T17:01:47Z</time>
      </trkpt>
      <trkpt lat="44.9567476" lon="6.8789893">
        <ele>2043.9</ele>
        <time>2011-01-30T17:01:52Z</time>
      </trkpt>
      <trkpt lat="44.9568283" lon="6.8790013">
        <ele>2041.02</ele>
        <time>2011-01-30T17:01:59Z</time>
      </trkpt>
      <trkpt lat="44.9568044" lon="6.8790108">
        <ele>2038.61</ele>
        <time>2011-01-30T17:02:04Z</time>
      </trkpt>
      <trkpt lat="44.9568931" lon="6.878947">
        <ele>2035.73</ele>
        <time>2011-01-30T17:02:09Z</time>
      </trkpt>
      <trkpt lat="44.9568458" lon="6.8790043">
        <ele>2043.9</ele>
        <time>2011-01-30T17:02:30Z</time>
      </trkpt>
      <trkpt lat="44.9568576" lon="6.8790917">
        <ele>2040.54</ele>
        <time>2011-01-30T17:02:36Z</time>
      </trkpt>
      <trkpt lat="44.9567998" lon="6.879104">
        <ele>2041.5</ele>
        <time>2011-01-30T17:02:39Z</time>
      </trkpt>
      <trkpt lat="44.956678" lon="6.8791442">
        <ele>2046.3</ele>
        <time>2011-01-30T17:02:43Z</time>
      </trkpt>
      <trkpt lat="44.9566079" lon="6.8791019">
        <ele>2051.59</ele>
        <time>2011-01-30T17:02:50Z</time>
      </trkpt>
      <trkpt lat="44.9565948" lon="6.8790931">
        <ele>2053.51</ele>
        <time>2011-01-30T17:02:53Z</time>
      </trkpt>
      <trkpt lat="44.9565744" lon="6.8790947">
        <ele>2054.47</ele>
        <time>2011-01-30T17:02:57Z</time>
      </trkpt>
      <trkpt lat="44.9564901" lon="6.8790455">
        <ele>2061.2</ele>
        <time>2011-01-30T17:03:04Z</time>
      </trkpt>
      <trkpt lat="44.956548" lon="6.8790307">
        <ele>2061.2</ele>
        <time>2011-01-30T17:03:10Z</time>
      </trkpt>
      <trkpt lat="44.9566853" lon="6.8790087">
        <ele>2054.47</ele>
        <time>2011-01-30T17:03:22Z</time>
      </trkpt>
      <trkpt lat="44.9567029" lon="6.8789619">
        <ele>2044.38</ele>
        <time>2011-01-30T17:03:28Z</time>
      </trkpt>
      <trkpt lat="44.9568143" lon="6.8789858">
        <ele>2041.02</ele>
        <time>2011-01-30T17:03:43Z</time>
      </trkpt>
      <trkpt lat="44.9568483" lon="6.8789289">
        <ele>2041.98</ele>
        <time>2011-01-30T17:03:53Z</time>
      </trkpt>
      <trkpt lat="44.95682" lon="6.8789992">
        <ele>2041.5</ele>
        <time>2011-01-30T17:03:59Z</time>
      </trkpt>
      <trkpt lat="44.9568262" lon="6.8790144">
        <ele>2036.21</ele>
        <time>2011-01-30T17:05:08Z</time>
      </trkpt>
      <trkpt lat="44.9567092" lon="6.8791031">
        <ele>2040.54</ele>
        <time>2011-01-30T17:05:23Z</time>
      </trkpt>
      <trkpt lat="44.9567267" lon="6.8790682">
        <ele>2041.5</ele>
        <time>2011-01-30T17:05:26Z</time>
      </trkpt>
      <trkpt lat="44.9567785" lon="6.8789833">
        <ele>2038.61</ele>
        <time>2011-01-30T17:05:35Z</time>
      </trkpt>
      <trkpt lat="44.9567492" lon="6.8790005">
        <ele>2032.36</ele>
        <time>2011-01-30T17:05:40Z</time>
      </trkpt>
      <trkpt lat="44.9568438" lon="6.8789886">
        <ele>2030.44</ele>
        <time>2011-01-30T17:06:19Z</time>
      </trkpt>
      <trkpt lat="44.9567801" lon="6.8789703">
        <ele>2040.54</ele>
        <time>2011-01-30T17:06:42Z</time>
      </trkpt>
      <trkpt lat="44.956726" lon="6.8790667">
        <ele>2048.23</ele>
        <time>2011-01-30T17:08:03Z</time>
      </trkpt>
      <trkpt lat="44.9567532" lon="6.8791004">
        <ele>2049.67</ele>
        <time>2011-01-30T17:08:31Z</time>
      </trkpt>
      <trkpt lat="44.9565587" lon="6.8791551">
        <ele>2058.32</ele>
        <time>2011-01-30T17:09:46Z</time>
      </trkpt>
      <trkpt lat="44.9565439" lon="6.8791599">
        <ele>2059.28</ele>
        <time>2011-01-30T17:09:47Z</time>
      </trkpt>
      <trkpt lat="44.9565459" lon="6.8791528">
        <ele>2057.36</ele>
        <time>2011-01-30T17:09:50Z</time>
      </trkpt>
      <trkpt lat="44.9566501" lon="6.8791449">
        <ele>2061.68</ele>
        <time>2011-01-30T17:09:55Z</time>
      </trkpt>
      <trkpt lat="44.9566506" lon="6.8791514">
        <ele>2060.24</ele>
        <time>2011-01-30T17:09:56Z</time>
      </trkpt>
      <trkpt lat="44.9566852" lon="6.879011">
        <ele>2042.46</ele>
        <time>2011-01-30T17:13:41Z</time>
      </trkpt>
      <trkpt lat="44.9568303" lon="6.8789708">
        <ele>2033.81</ele>
        <time>2011-01-30T17:13:48Z</time>
      </trkpt>
      <trkpt lat="44.9567673" lon="6.8790078">
        <ele>2029</ele>
        <time>2011-01-30T17:14:01Z</time>
      </trkpt>
      <trkpt lat="44.9562341" lon="6.8787023">
        <ele>2119.36</ele>
        <time>2011-01-30T17:22:02Z</time>
      </trkpt>
      <trkpt lat="44.9562311" lon="6.8787424">
        <ele>2117.92</ele>
        <time>2011-01-30T17:22:08Z</time>
      </trkpt>
      <trkpt lat="44.9562469" lon="6.8788927">
        <ele>2101.58</ele>
        <time>2011-01-30T17:26:26Z</time>
      </trkpt>
      <trkpt lat="44.9561979" lon="6.8790158">
        <ele>2101.58</ele>
        <time>2011-01-30T17:26:31Z</time>
      </trkpt>
      <trkpt lat="44.9561741" lon="6.8790699">
        <ele>2100.14</ele>
        <time>2011-01-30T17:26:35Z</time>
      </trkpt>
    </trkseg>
  </trk>
</gpx>